Observation data for Throckmorton on 02/24/2021      Previous  Date  Next       Current Mesonet Observations  Soil Data  Daily Summary Page  Observations in Plain Language
KTH1 240600Z 22014G20KT 19/10 A298 RMK A01 T01900103  RH  057%=      5-min Rain = 0
KTH1 240601Z 22014G19KT 19/10 A298 RMK A01 T01900103  RH  057%=      5-min Rain = 0
KTH1 240602Z 21017KT 19/10 A298 RMK A01 T01900104  RH  057%=      5-min Rain = 0
KTH1 240603Z 21014G19KT 19/10 A298 RMK A01 T01900104  RH  057%=      5-min Rain = 0
KTH1 240604Z 21015G21KT 19/10 A298 RMK A01 T01900104  RH  057%=      5-min Rain = 0
KTH1 240605Z 21014G20KT 19/10 A298 RMK A01 T01900104  RH  057%=      5-min Rain = 0
KTH1 240606Z 21015KT 19/10 A298 RMK A01 T01900104  RH  058%=      5-min Rain = 0
KTH1 240607Z 22015G21KT 19/10 A298 RMK A01 T01890104  RH  058%=      5-min Rain = 0
KTH1 240608Z 22015KT 19/10 A298 RMK A01 T01890104  RH  058%=      5-min Rain = 0
KTH1 240609Z 21016G21KT 19/10 A298 RMK A01 T01880104  RH  058%=      5-min Rain = 0
KTH1 240610Z 22016G22KT 19/10 A298 RMK A01 T01880104  RH  058%=      5-min Rain = 0
KTH1 240611Z 21014KT 19/10 A298 RMK A01 T01890104  RH  058%=      5-min Rain = 0
KTH1 240612Z 21015G20KT 19/10 A298 RMK A01 T01880104  RH  058%=      5-min Rain = 0
KTH1 240613Z 22015KT 19/10 A298 RMK A01 T01880104  RH  058%=      5-min Rain = 0
KTH1 240614Z 22013KT 19/10 A298 RMK A01 T01880104  RH  058%=      5-min Rain = 0
KTH1 240615Z 21014G19KT 19/10 A298 RMK A01 T01880104  RH  058%=      5-min Rain = 0
KTH1 240616Z 22012G18KT 19/10 A298 RMK A01 T01880104  RH  058%=      5-min Rain = 0
KTH1 240617Z 22014G19KT 19/10 A298 RMK A01 T01870104  RH  058%=      5-min Rain = 0
KTH1 240618Z 22016KT 19/10 A298 RMK A01 T01870104  RH  058%=      5-min Rain = 0
KTH1 240619Z 22013G18KT 19/10 A298 RMK A01 T01880104  RH  058%=      5-min Rain = 0
KTH1 240620Z 21012G17KT 19/10 A298 RMK A01 T01870104  RH  058%=      5-min Rain = 0
KTH1 240621Z 22012G18KT 19/10 A298 RMK A01 T01870104  RH  058%=      5-min Rain = 0
KTH1 240622Z 22013KT 19/10 A298 RMK A01 T01870104  RH  059%=      5-min Rain = 0
KTH1 240623Z 22013G19KT 19/10 A298 RMK A01 T01870104  RH  059%=      5-min Rain = 0
KTH1 240624Z 21015G20KT 19/10 A298 RMK A01 T01860104  RH  059%=      5-min Rain = 0
KTH1 240625Z 22013G20KT 19/10 A298 RMK A01 T01860104  RH  059%=      5-min Rain = 0
KTH1 240626Z 21013G20KT 19/10 A298 RMK A01 T01860104  RH  059%=      5-min Rain = 0
KTH1 240627Z 21015G20KT 19/10 A298 RMK A01 T01860104  RH  059%=      5-min Rain = 0
KTH1 240628Z 21015G21KT 19/10 A298 RMK A01 T01860104  RH  059%=      5-min Rain = 0
KTH1 240629Z 22014G22KT 19/10 A298 RMK A01 T01860104  RH  059%=      5-min Rain = 0
KTH1 240630Z 21012G17KT 19/10 A298 RMK A01 T01860104  RH  059%=      5-min Rain = 0
KTH1 240631Z 22012KT 19/10 A298 RMK A01 T01850104  RH  059%=      5-min Rain = 0
KTH1 240632Z 22013G19KT 19/10 A298 RMK A01 T01850104  RH  059%=      5-min Rain = 0
KTH1 240633Z 21013G18KT 19/10 A298 RMK A01 T01850104  RH  059%=      5-min Rain = 0
KTH1 240634Z 22014G20KT 19/10 A298 RMK A01 T01850104  RH  059%=      5-min Rain = 0
KTH1 240635Z 21015G22KT 18/10 A298 RMK A01 T01840104  RH  059%=      5-min Rain = 0
KTH1 240636Z 22016KT 19/10 A298 RMK A01 T01850104  RH  059%=      5-min Rain = 0
KTH1 240637Z 21015G21KT 18/10 A298 RMK A01 T01840104  RH  059%=      5-min Rain = 0
KTH1 240638Z 21017G23KT 18/10 A298 RMK A01 T01840104  RH  059%=      5-min Rain = 0
KTH1 240639Z 22016G21KT 18/10 A298 RMK A01 T01840104  RH  059%=      5-min Rain = 0
KTH1 240640Z 22016G21KT 19/10 A298 RMK A01 T01850104  RH  059%=      5-min Rain = 0
KTH1 240641Z 22014G19KT 19/10 A298 RMK A01 T01850104  RH  059%=      5-min Rain = 0
KTH1 240642Z 22013G18KT 19/10 A298 RMK A01 T01850104  RH  059%=      5-min Rain = 0
KTH1 240643Z 22013KT 18/10 A298 RMK A01 T01840103  RH  059%=      5-min Rain = 0
KTH1 240644Z 22015G22KT 18/10 A298 RMK A01 T01840103  RH  059%=      5-min Rain = 0
KTH1 240645Z 22017KT 18/10 A298 RMK A01 T01830103  RH  060%=      5-min Rain = 0
KTH1 240646Z 22017G25KT 18/10 A298 RMK A01 T01830103  RH  060%=      5-min Rain = 0
KTH1 240647Z 22017G22KT 18/10 A298 RMK A01 T01840104  RH  059%=      5-min Rain = 0
KTH1 240648Z 22016G21KT 18/10 A298 RMK A01 T01840104  RH  059%=      5-min Rain = 0
KTH1 240649Z 22014KT 18/10 A298 RMK A01 T01840104  RH  059%=      5-min Rain = 0
KTH1 240650Z 22016G23KT 18/10 A298 RMK A01 T01840103  RH  059%=      5-min Rain = 0
KTH1 240651Z 22016G21KT 18/10 A298 RMK A01 T01830103  RH  060%=      5-min Rain = 0
KTH1 240652Z 22016KT 18/10 A298 RMK A01 T01830103  RH  060%=      5-min Rain = 0
KTH1 240653Z 22014G20KT 18/10 A298 RMK A01 T01830103  RH  060%=      5-min Rain = 0
KTH1 240654Z 22013G18KT 18/10 A298 RMK A01 T01830103  RH  060%=      5-min Rain = 0
KTH1 240655Z 22013G18KT 18/10 A298 RMK A01 T01820103  RH  060%=      5-min Rain = 0
KTH1 240656Z 22013KT 18/10 A298 RMK A01 T01810103  RH  060%=      5-min Rain = 0
KTH1 240657Z 21015KT 18/10 A298 RMK A01 T01810103  RH  060%=      5-min Rain = 0
KTH1 240658Z 22015G20KT 18/10 A298 RMK A01 T01810103  RH  060%=      5-min Rain = 0
KTH1 240659Z 22012G18KT 18/10 A298 RMK A01 T01810103  RH  060%=      5-min Rain = 0
KTH1 240700Z 22013G18KT 18/10 A298 RMK A01 T01810103  RH  060%=      5-min Rain = 0
KTH1 240701Z 23013G19KT 18/10 A298 RMK A01 T01800103  RH  060%=      5-min Rain = 0
KTH1 240702Z 22014KT 18/10 A298 RMK A01 T01800103  RH  061%=      5-min Rain = 0
KTH1 240703Z 22014KT 18/10 A298 RMK A01 T01800103  RH  061%=      5-min Rain = 0
KTH1 240704Z 22012G18KT 18/10 A298 RMK A01 T01800103  RH  061%=      5-min Rain = 0
KTH1 240705Z 22013G18KT 18/10 A298 RMK A01 T01800103  RH  061%=      5-min Rain = 0
KTH1 240706Z 22013KT 18/10 A298 RMK A01 T01790103  RH  061%=      5-min Rain = 0
KTH1 240707Z 22013G18KT 18/10 A298 RMK A01 T01790103  RH  061%=      5-min Rain = 0
KTH1 240708Z 22014G20KT 18/10 A298 RMK A01 T01790103  RH  061%=      5-min Rain = 0
KTH1 240709Z 22013G18KT 18/10 A298 RMK A01 T01780103  RH  061%=      5-min Rain = 0
KTH1 240710Z 23014KT 18/10 A298 RMK A01 T01780103  RH  061%=      5-min Rain = 0
KTH1 240711Z 22013KT 18/10 A298 RMK A01 T01780103  RH  061%=      5-min Rain = 0
KTH1 240712Z 22014G19KT 18/10 A298 RMK A01 T01780103  RH  061%=      5-min Rain = 0
KTH1 240713Z 22014KT 18/10 A298 RMK A01 T01770103  RH  062%=      5-min Rain = 0
KTH1 240714Z 22014KT 18/10 A298 RMK A01 T01780103  RH  062%=      5-min Rain = 0
KTH1 240715Z 22015G21KT 18/10 A2979 RMK A01 T01780103  RH  062%=      5-min Rain = 0
KTH1 240716Z 22016KT 18/10 A2979 RMK A01 T01780104  RH  062%=      5-min Rain = 0
KTH1 240717Z 22014G20KT 18/10 A2979 RMK A01 T01790104  RH  061%=      5-min Rain = 0
KTH1 240718Z 22013KT 18/10 A2979 RMK A01 T01790103  RH  061%=      5-min Rain = 0
KTH1 240719Z 22013KT 18/10 A2979 RMK A01 T01780104  RH  061%=      5-min Rain = 0
KTH1 240720Z 22016G22KT 18/10 A2979 RMK A01 T01780104  RH  062%=      5-min Rain = 0
KTH1 240721Z 22016G22KT 18/10 A2979 RMK A01 T01780104  RH  062%=      5-min Rain = 0
KTH1 240722Z 22015KT 18/10 A2979 RMK A01 T01780104  RH  062%=      5-min Rain = 0
KTH1 240723Z 22015KT 18/10 A2979 RMK A01 T01780104  RH  062%=      5-min Rain = 0
KTH1 240724Z 22014KT 18/10 A2979 RMK A01 T01780104  RH  062%=      5-min Rain = 0
KTH1 240725Z 22013G18KT 18/10 A2979 RMK A01 T01780104  RH  062%=      5-min Rain = 0
KTH1 240726Z 23015KT 18/10 A2979 RMK A01 T01780104  RH  062%=      5-min Rain = 0
KTH1 240727Z 22014G22KT 18/10 A2979 RMK A01 T01780104  RH  062%=      5-min Rain = 0
KTH1 240728Z 22015KT 18/10 A298 RMK A01 T01780104  RH  062%=      5-min Rain = 0
KTH1 240729Z 22014KT 18/10 A298 RMK A01 T01780104  RH  062%=      5-min Rain = 0
KTH1 240730Z 22013KT 18/10 A298 RMK A01 T01780104  RH  062%=      5-min Rain = 0
KTH1 240731Z 22014G20KT 18/10 A298 RMK A01 T01780104  RH  062%=      5-min Rain = 0
KTH1 240732Z 22011G16KT 18/10 A298 RMK A01 T01780104  RH  062%=      5-min Rain = 0
KTH1 240733Z 22014G19KT 18/10 A298 RMK A01 T01780104  RH  062%=      5-min Rain = 0
KTH1 240734Z 23012G17KT 18/10 A298 RMK A01 T01780104  RH  062%=      5-min Rain = 0
KTH1 240735Z 23015G21KT 18/10 A298 RMK A01 T01780104  RH  062%=      5-min Rain = 0
KTH1 240736Z 23012KT 18/10 A298 RMK A01 T01780104  RH  062%=      5-min Rain = 0
KTH1 240737Z 22012KT 18/11 A298 RMK A01 T01780105  RH  062%=      5-min Rain = 0
KTH1 240738Z 23011G16KT 18/10 A298 RMK A01 T01770104  RH  062%=      5-min Rain = 0
KTH1 240739Z 22014G19KT 18/10 A298 RMK A01 T01770104  RH  062%=      5-min Rain = 0
KTH1 240740Z 23013G19KT 18/10 A298 RMK A01 T01760104  RH  063%=      5-min Rain = 0
KTH1 240741Z 22012G18KT 18/10 A298 RMK A01 T01770104  RH  062%=      5-min Rain = 0
KTH1 240742Z 23014G20KT 18/10 A298 RMK A01 T01770104  RH  062%=      5-min Rain = 0
KTH1 240743Z 23012G18KT 18/11 A298 RMK A01 T01770105  RH  062%=      5-min Rain = 0
KTH1 240744Z 23015KT 18/10 A298 RMK A01 T01770104  RH  062%=      5-min Rain = 0
KTH1 240745Z 24014G19KT 18/10 A298 RMK A01 T01770104  RH  062%=      5-min Rain = 0
KTH1 240746Z 23012G17KT 18/10 A298 RMK A01 T01770104  RH  062%=      5-min Rain = 0
KTH1 240747Z 23012KT 18/10 A298 RMK A01 T01770104  RH  062%=      5-min Rain = 0
KTH1 240748Z 23013G19KT 18/10 A298 RMK A01 T01770104  RH  062%=      5-min Rain = 0
KTH1 240749Z 23014G20KT 18/11 A298 RMK A01 T01770105  RH  063%=      5-min Rain = 0
KTH1 240750Z 23015KT 18/11 A298 RMK A01 T01770105  RH  063%=      5-min Rain = 0
KTH1 240751Z 23014KT 18/11 A2981 RMK A01 T01770105  RH  063%=      5-min Rain = 0
KTH1 240752Z 23015KT 18/10 A298 RMK A01 T01760104  RH  063%=      5-min Rain = 0
KTH1 240753Z 23011G19KT 18/11 A2981 RMK A01 T01770105  RH  063%=      5-min Rain = 0
KTH1 240754Z 23016KT 18/11 A298 RMK A01 T01760105  RH  063%=      5-min Rain = 0
KTH1 240755Z 23014KT 18/11 A298 RMK A01 T01770105  RH  063%=      5-min Rain = 0
KTH1 240756Z 23013G18KT 18/11 A298 RMK A01 T01770105  RH  063%=      5-min Rain = 0
KTH1 240757Z 23016KT 18/11 A298 RMK A01 T01760105  RH  063%=      5-min Rain = 0
KTH1 240758Z 22013G18KT 18/11 A298 RMK A01 T01770105  RH  063%=      5-min Rain = 0
KTH1 240759Z 23014G22KT 18/11 A298 RMK A01 T01760105  RH  063%=      5-min Rain = 0
KTH1 240800Z 23013G21KT 18/10 A298 RMK A01 T01750104  RH  063%=      5-min Rain = 0
KTH1 240801Z 23015KT 18/11 A298 RMK A01 T01750105  RH  063%=      5-min Rain = 0
KTH1 240802Z 23013G22KT 18/11 A298 RMK A01 T01750105  RH  063%=      5-min Rain = 0
KTH1 240803Z 23012G18KT 18/11 A298 RMK A01 T01750105  RH  063%=      5-min Rain = 0
KTH1 240804Z 23014KT 18/10 A298 RMK A01 T01750104  RH  063%=      5-min Rain = 0
KTH1 240805Z 23012G19KT 17/11 A298 RMK A01 T01740105  RH  064%=      5-min Rain = 0
KTH1 240806Z 22014G20KT 17/10 A298 RMK A01 T01740104  RH  064%=      5-min Rain = 0
KTH1 240807Z 23014G20KT 17/11 A298 RMK A01 T01740105  RH  064%=      5-min Rain = 0
KTH1 240808Z 23016KT 17/11 A298 RMK A01 T01740105  RH  064%=      5-min Rain = 0
KTH1 240809Z 23016G21KT 17/11 A298 RMK A01 T01740105  RH  064%=      5-min Rain = 0
KTH1 240810Z 23015KT 17/10 A298 RMK A01 T01740104  RH  064%=      5-min Rain = 0
KTH1 240811Z 22012KT 17/10 A298 RMK A01 T01740104  RH  063%=      5-min Rain = 0
KTH1 240812Z 22017G23KT 17/10 A298 RMK A01 T01740104  RH  064%=      5-min Rain = 0
KTH1 240813Z 23015KT 17/11 A298 RMK A01 T01740105  RH  064%=      5-min Rain = 0
KTH1 240814Z 22014KT 17/11 A298 RMK A01 T01740105  RH  064%=      5-min Rain = 0
KTH1 240815Z 22013KT 17/11 A298 RMK A01 T01740105  RH  064%=      5-min Rain = 0
KTH1 240816Z 22014KT 17/10 A298 RMK A01 T01730104  RH  064%=      5-min Rain = 0
KTH1 240817Z 23014G19KT 17/11 A298 RMK A01 T01730105  RH  064%=      5-min Rain = 0
KTH1 240818Z 23013G19KT 17/10 A298 RMK A01 T01720104  RH  064%=      5-min Rain = 0
KTH1 240819Z 22014G19KT 17/11 A298 RMK A01 T01720105  RH  064%=      5-min Rain = 0
KTH1 240820Z 23013G18KT 17/10 A298 RMK A01 T01720104  RH  064%=      5-min Rain = 0
KTH1 240821Z 23015KT 17/10 A298 RMK A01 T01720104  RH  064%=      5-min Rain = 0
KTH1 240822Z 23015G20KT 17/10 A298 RMK A01 T01720104  RH  064%=      5-min Rain = 0
KTH1 240823Z 23013KT 17/11 A298 RMK A01 T01720105  RH  064%=      5-min Rain = 0
KTH1 240824Z 23013G19KT 17/10 A298 RMK A01 T01720104  RH  064%=      5-min Rain = 0
KTH1 240825Z 24013KT 17/10 A298 RMK A01 T01720104  RH  065%=      5-min Rain = 0
KTH1 240826Z 24012KT 17/10 A2981 RMK A01 T01710104  RH  065%=      5-min Rain = 0
KTH1 240827Z 23013KT 17/10 A2981 RMK A01 T01710104  RH  065%=      5-min Rain = 0
KTH1 240828Z 23015KT 17/11 A298 RMK A01 T01710105  RH  065%=      5-min Rain = 0
KTH1 240829Z 23015KT 17/10 A2981 RMK A01 T01710104  RH  065%=      5-min Rain = 0
KTH1 240830Z 23013KT 17/10 A2981 RMK A01 T01710104  RH  065%=      5-min Rain = 0
KTH1 240831Z 23016KT 17/10 A298 RMK A01 T01710104  RH  065%=      5-min Rain = 0
KTH1 240832Z 23014KT 17/11 A298 RMK A01 T01710105  RH  065%=      5-min Rain = 0
KTH1 240833Z 23013KT 17/10 A298 RMK A01 T01710104  RH  065%=      5-min Rain = 0
KTH1 240834Z 23015KT 17/11 A298 RMK A01 T01700105  RH  065%=      5-min Rain = 0
KTH1 240835Z 23014G19KT 17/11 A298 RMK A01 T01710105  RH  065%=      5-min Rain = 0
KTH1 240836Z 23013KT 17/11 A298 RMK A01 T01710105  RH  065%=      5-min Rain = 0
KTH1 240837Z 24012KT 17/11 A298 RMK A01 T01700105  RH  065%=      5-min Rain = 0
KTH1 240838Z 23014KT 17/11 A298 RMK A01 T01700105  RH  065%=      5-min Rain = 0
KTH1 240839Z 23014KT 17/11 A2981 RMK A01 T01700105  RH  065%=      5-min Rain = 0
KTH1 240840Z 24014KT 17/11 A2981 RMK A01 T01700105  RH  065%=      5-min Rain = 0
KTH1 240841Z 23013KT 17/10 A2981 RMK A01 T01700104  RH  065%=      5-min Rain = 0
KTH1 240842Z 23015G21KT 17/10 A2981 RMK A01 T01690104  RH  065%=      5-min Rain = 0
KTH1 240843Z 24014G19KT 17/11 A298 RMK A01 T01700105  RH  065%=      5-min Rain = 0
KTH1 240844Z 23013KT 17/11 A2981 RMK A01 T01700105  RH  065%=      5-min Rain = 0
KTH1 240845Z 24014G19KT 17/11 A298 RMK A01 T01690105  RH  066%=      5-min Rain = 0
KTH1 240846Z 23015G20KT 17/11 A298 RMK A01 T01700105  RH  066%=      5-min Rain = 0
KTH1 240847Z 23014G20KT 17/11 A298 RMK A01 T01700105  RH  066%=      5-min Rain = 0
KTH1 240848Z 23013G18KT 17/11 A298 RMK A01 T01700105  RH  065%=      5-min Rain = 0
KTH1 240849Z 23013G18KT 17/11 A298 RMK A01 T01700105  RH  066%=      5-min Rain = 0
KTH1 240850Z 23015G20KT 17/11 A298 RMK A01 T01700105  RH  066%=      5-min Rain = 0
KTH1 240851Z 23015KT 17/11 A298 RMK A01 T01700106  RH  066%=      5-min Rain = 0
KTH1 240852Z 24015G20KT 17/11 A298 RMK A01 T01700105  RH  065%=      5-min Rain = 0
KTH1 240853Z 23016G21KT 17/11 A298 RMK A01 T01700105  RH  065%=      5-min Rain = 0
KTH1 240854Z 23015G22KT 17/11 A298 RMK A01 T01700105  RH  065%=      5-min Rain = 0
KTH1 240855Z 23013G18KT 17/11 A298 RMK A01 T01700105  RH  066%=      5-min Rain = 0
KTH1 240856Z 24013G18KT 17/11 A298 RMK A01 T01690105  RH  066%=      5-min Rain = 0
KTH1 240857Z 23013G19KT 17/11 A298 RMK A01 T01690105  RH  066%=      5-min Rain = 0
KTH1 240858Z 23016G21KT 17/11 A298 RMK A01 T01690105  RH  066%=      5-min Rain = 0
KTH1 240859Z 23014KT 17/11 A298 RMK A01 T01690105  RH  066%=      5-min Rain = 0
KTH1 240900Z 24013KT 17/11 A298 RMK A01 T01690105  RH  066%=      5-min Rain = 0
KTH1 240901Z 24013G18KT 17/11 A298 RMK A01 T01680105  RH  066%=      5-min Rain = 0
KTH1 240902Z 23014KT 17/11 A298 RMK A01 T01670105  RH  067%=      5-min Rain = 0
KTH1 240903Z 23012KT 17/10 A2981 RMK A01 T01670104  RH  067%=      5-min Rain = 0
KTH1 240904Z 24014KT 17/10 A298 RMK A01 T01660104  RH  067%=      5-min Rain = 0
KTH1 240905Z 24014KT 17/10 A298 RMK A01 T01660104  RH  067%=      5-min Rain = 0
KTH1 240906Z 24013KT 17/10 A298 RMK A01 T01660104  RH  067%=      5-min Rain = 0
KTH1 240907Z 24013KT 17/10 A2981 RMK A01 T01650104  RH  067%=      5-min Rain = 0
KTH1 240908Z 24013KT 16/10 A298 RMK A01 T01640104  RH  067%=      5-min Rain = 0
KTH1 240909Z 24013KT 16/10 A2981 RMK A01 T01640104  RH  067%=      5-min Rain = 0
KTH1 240910Z 24013KT 16/10 A2981 RMK A01 T01630103  RH  068%=      5-min Rain = 0
KTH1 240911Z 24013KT 16/10 A2981 RMK A01 T01630103  RH  068%=      5-min Rain = 0
KTH1 240912Z 25013KT 16/10 A2981 RMK A01 T01610102  RH  068%=      5-min Rain = 0
KTH1 240913Z 25015KT 16/10 A2981 RMK A01 T01600102  RH  068%=      5-min Rain = 0
KTH1 240914Z 25014KT 16/10 A2981 RMK A01 T01590101  RH  068%=      5-min Rain = 0
KTH1 240915Z 25013KT 16/10 A2981 RMK A01 T01570100  RH  069%=      5-min Rain = 0
KTH1 240916Z 24012KT 16/10 A2981 RMK A01 T01550099  RH  069%=      5-min Rain = 0
KTH1 240917Z 25012KT 15/10 A2981 RMK A01 T01530099  RH  070%=      5-min Rain = 0
KTH1 240918Z 24012KT 15/10 A2981 RMK A01 T01520100  RH  071%=      5-min Rain = 0
KTH1 240919Z 24013KT 15/10 A2981 RMK A01 T01530101  RH  071%=      5-min Rain = 0
KTH1 240920Z 24014KT 15/10 A2981 RMK A01 T01530101  RH  071%=      5-min Rain = 0
KTH1 240921Z 24014KT 15/10 A2981 RMK A01 T01540102  RH  071%=      5-min Rain = 0
KTH1 240922Z 24014KT 16/10 A2981 RMK A01 T01550101  RH  070%=      5-min Rain = 0
KTH1 240923Z 24015KT 16/10 A2981 RMK A01 T01550101  RH  070%=      5-min Rain = 0
KTH1 240924Z 24014KT 15/10 A2981 RMK A01 T01540101  RH  071%=      5-min Rain = 0
KTH1 240925Z 24015KT 15/10 A2981 RMK A01 T01530100  RH  071%=      5-min Rain = 0
KTH1 240926Z 25014KT 15/10 A2981 RMK A01 T01530101  RH  071%=      5-min Rain = 0
KTH1 240927Z 24016KT 15/10 A298 RMK A01 T01520100  RH  071%=      5-min Rain = 0
KTH1 240928Z 25017KT 15/10 A2981 RMK A01 T01520100  RH  071%=      5-min Rain = 0
KTH1 240929Z 24015KT 15/10 A298 RMK A01 T01520100  RH  071%=      5-min Rain = 0
KTH1 240930Z 24015KT 15/10 A298 RMK A01 T01510100  RH  072%=      5-min Rain = 0
KTH1 240931Z 24014KT 15/10 A298 RMK A01 T01510100  RH  072%=      5-min Rain = 0
KTH1 240932Z 24015G20KT 15/10 A298 RMK A01 T01510100  RH  072%=      5-min Rain = 0
KTH1 240933Z 24014KT 15/10 A298 RMK A01 T01510100  RH  072%=      5-min Rain = 0
KTH1 240934Z 24015G20KT 15/10 A298 RMK A01 T01510101  RH  072%=      5-min Rain = 0
KTH1 240935Z 24016KT 15/10 A298 RMK A01 T01520101  RH  071%=      5-min Rain = 0
KTH1 240936Z 24016KT 15/10 A298 RMK A01 T01520101  RH  071%=      5-min Rain = 0
KTH1 240937Z 25016KT 15/10 A298 RMK A01 T01520100  RH  071%=      5-min Rain = 0
KTH1 240938Z 24015KT 15/10 A298 RMK A01 T01520100  RH  071%=      5-min Rain = 0
KTH1 240939Z 25018G23KT 15/10 A298 RMK A01 T01510100  RH  071%=      5-min Rain = 0
KTH1 240940Z 24015KT 15/10 A298 RMK A01 T01510100  RH  072%=      5-min Rain = 0
KTH1 240941Z 24017KT 15/10 A298 RMK A01 T01510100  RH  071%=      5-min Rain = 0
KTH1 240942Z 25017KT 15/10 A298 RMK A01 T01510100  RH  071%=      5-min Rain = 0
KTH1 240943Z 25018KT 15/10 A2981 RMK A01 T01500098  RH  071%=      5-min Rain = 0
KTH1 240944Z 25017KT 15/10 A2981 RMK A01 T01490098  RH  072%=      5-min Rain = 0
KTH1 240945Z 25017KT 15/10 A2981 RMK A01 T01470097  RH  072%=      5-min Rain = 0
KTH1 240946Z 25018KT 15/10 A2981 RMK A01 T01450097  RH  073%=      5-min Rain = 0
KTH1 240947Z 26016KT 14/10 A2981 RMK A01 T01440096  RH  073%=      5-min Rain = 0
KTH1 240948Z 26016KT 14/09 A2982 RMK A01 T01410094  RH  073%=      5-min Rain = 0
KTH1 240949Z 26015KT 14/09 A2982 RMK A01 T01390092  RH  074%=      5-min Rain = 0
KTH1 240950Z 26016KT 14/09 A2982 RMK A01 T01360093  RH  075%=      5-min Rain = 0
KTH1 240951Z 26017KT 14/10 A2982 RMK A01 T01360095  RH  076%=      5-min Rain = 0
KTH1 240952Z 26017KT 14/10 A2982 RMK A01 T01360096  RH  077%=      5-min Rain = 0
KTH1 240953Z 26017KT 14/10 A2982 RMK A01 T01400098  RH  076%=      5-min Rain = 0
KTH1 240954Z 26016KT 14/10 A2982 RMK A01 T01410098  RH  075%=      5-min Rain = 0
KTH1 240955Z 26016KT 14/10 A2982 RMK A01 T01420096  RH  074%=      5-min Rain = 0
KTH1 240956Z 26015KT 14/10 A2983 RMK A01 T01410096  RH  074%=      5-min Rain = 0
KTH1 240957Z 26014KT 14/10 A2983 RMK A01 T01390095  RH  074%=      5-min Rain = 0
KTH1 240958Z 26016KT 14/10 A2983 RMK A01 T01380096  RH  076%=      5-min Rain = 0
KTH1 240959Z 26016KT 14/10 A2983 RMK A01 T01380095  RH  075%=      5-min Rain = 0
KTH1 241000Z 26018KT 14/10 A2983 RMK A01 T01380095  RH  075%=      5-min Rain = 0
KTH1 241001Z 26016KT 14/10 A2983 RMK A01 T01370096  RH  076%=      5-min Rain = 0
KTH1 241002Z 26016KT 14/10 A2983 RMK A01 T01370095  RH  076%=      5-min Rain = 0
KTH1 241003Z 26016KT 14/09 A2983 RMK A01 T01350094  RH  076%=      5-min Rain = 0
KTH1 241004Z 26016KT 13/09 A2984 RMK A01 T01340094  RH  077%=      5-min Rain = 0
KTH1 241005Z 26016KT 13/09 A2984 RMK A01 T01330094  RH  077%=      5-min Rain = 0
KTH1 241006Z 26016KT 13/10 A2984 RMK A01 T01330095  RH  078%=      5-min Rain = 0
KTH1 241007Z 26016KT 13/09 A2984 RMK A01 T01330094  RH  077%=      5-min Rain = 0
KTH1 241008Z 25016KT 13/09 A2983 RMK A01 T01330094  RH  078%=      5-min Rain = 0
KTH1 241009Z 26017KT 13/10 A2983 RMK A01 T01320095  RH  078%=      5-min Rain = 0
KTH1 241010Z 26016KT 13/10 A2983 RMK A01 T01330096  RH  078%=      5-min Rain = 0
KTH1 241011Z 26019KT 14/10 A2984 RMK A01 T01350097  RH  078%=      5-min Rain = 0
KTH1 241012Z 26018KT 14/10 A2984 RMK A01 T01370097  RH  077%=      5-min Rain = 0
KTH1 241013Z 26017KT 14/10 A2984 RMK A01 T01370096  RH  076%=      5-min Rain = 0
KTH1 241014Z 26017KT 14/10 A2984 RMK A01 T01370097  RH  077%=      5-min Rain = 0
KTH1 241015Z 27016KT 14/10 A2984 RMK A01 T01370097  RH  077%=      5-min Rain = 0
KTH1 241016Z 27017KT 14/10 A2984 RMK A01 T01370098  RH  077%=      5-min Rain = 0
KTH1 241017Z 27015KT 14/10 A2984 RMK A01 T01370098  RH  077%=      5-min Rain = 0
KTH1 241018Z 27015KT 14/10 A2984 RMK A01 T01380097  RH  076%=      5-min Rain = 0
KTH1 241019Z 26015KT 14/10 A2984 RMK A01 T01370096  RH  076%=      5-min Rain = 0
KTH1 241020Z 27014KT 14/10 A2984 RMK A01 T01360096  RH  077%=      5-min Rain = 0
KTH1 241021Z 26016KT 14/10 A2984 RMK A01 T01350095  RH  077%=      5-min Rain = 0
KTH1 241022Z 27015KT 14/10 A2984 RMK A01 T01350097  RH  078%=      5-min Rain = 0
KTH1 241023Z 27015KT 14/10 A2984 RMK A01 T01350096  RH  077%=      5-min Rain = 0
KTH1 241024Z 27014KT 14/10 A2984 RMK A01 T01350097  RH  077%=      5-min Rain = 0
KTH1 241025Z 27016KT 14/10 A2984 RMK A01 T01350096  RH  077%=      5-min Rain = 0
KTH1 241026Z 27014KT 14/10 A2984 RMK A01 T01350097  RH  078%=      5-min Rain = 0
KTH1 241027Z 27016KT 13/10 A2984 RMK A01 T01340096  RH  078%=      5-min Rain = 0
KTH1 241028Z 27015KT 14/10 A2984 RMK A01 T01350097  RH  078%=      5-min Rain = 0
KTH1 241029Z 27014KT 14/10 A2984 RMK A01 T01360096  RH  077%=      5-min Rain = 0
KTH1 241030Z 27015KT 14/10 A2984 RMK A01 T01350095  RH  077%=      5-min Rain = 0
KTH1 241031Z 26015KT 13/10 A2984 RMK A01 T01340095  RH  077%=      5-min Rain = 0
KTH1 241032Z 27014KT 14/09 A2985 RMK A01 T01350094  RH  076%=      5-min Rain = 0
KTH1 241033Z 27015KT 14/09 A2985 RMK A01 T01350092  RH  075%=      5-min Rain = 0
KTH1 241034Z 27014KT 13/09 A2985 RMK A01 T01340091  RH  075%=      5-min Rain = 0
KTH1 241035Z 27014KT 13/09 A2985 RMK A01 T01330090  RH  075%=      5-min Rain = 0
KTH1 241036Z 27015KT 13/09 A2985 RMK A01 T01320089  RH  075%=      5-min Rain = 0
KTH1 241037Z 27014KT 13/09 A2985 RMK A01 T01320089  RH  075%=      5-min Rain = 0
KTH1 241038Z 28015KT 13/09 A2985 RMK A01 T01310088  RH  075%=      5-min Rain = 0
KTH1 241039Z 28014KT 13/09 A2985 RMK A01 T01320087  RH  074%=      5-min Rain = 0
KTH1 241040Z 28013KT 13/09 A2985 RMK A01 T01320086  RH  074%=      5-min Rain = 0
KTH1 241041Z 28015KT 13/09 A2985 RMK A01 T01320086  RH  074%=      5-min Rain = 0
KTH1 241042Z 28017KT 13/09 A2985 RMK A01 T01320086  RH  073%=      5-min Rain = 0
KTH1 241043Z 28014KT 13/09 A2985 RMK A01 T01320086  RH  074%=      5-min Rain = 0
KTH1 241044Z 28015KT 13/09 A2985 RMK A01 T01330086  RH  073%=      5-min Rain = 0
KTH1 241045Z 28015KT 13/09 A2986 RMK A01 T01320085  RH  073%=      5-min Rain = 0
KTH1 241046Z 28015KT 13/08 A2986 RMK A01 T01310084  RH  073%=      5-min Rain = 0
KTH1 241047Z 29016KT 13/08 A2986 RMK A01 T01310083  RH  072%=      5-min Rain = 0
KTH1 241048Z 28015KT 13/08 A2986 RMK A01 T01310081  RH  072%=      5-min Rain = 0
KTH1 241049Z 29015KT 13/08 A2986 RMK A01 T01310079  RH  071%=      5-min Rain = 0
KTH1 241050Z 29016KT 13/08 A2986 RMK A01 T01310078  RH  070%=      5-min Rain = 0
KTH1 241051Z 29015KT 13/08 A2987 RMK A01 T01310076  RH  069%=      5-min Rain = 0
KTH1 241052Z 29017KT 13/08 A2987 RMK A01 T01310075  RH  069%=      5-min Rain = 0
KTH1 241053Z 29015KT 13/07 A2987 RMK A01 T01310073  RH  068%=      5-min Rain = 0
KTH1 241054Z 29014KT 13/07 A2987 RMK A01 T01300072  RH  068%=      5-min Rain = 0
KTH1 241055Z 29015KT 13/07 A2987 RMK A01 T01300073  RH  068%=      5-min Rain = 0
KTH1 241056Z 29015G20KT 13/07 A2987 RMK A01 T01300073  RH  068%=      5-min Rain = 0
KTH1 241057Z 30017KT 13/07 A2987 RMK A01 T01290071  RH  068%=      5-min Rain = 0
KTH1 241058Z 29014KT 13/07 A2988 RMK A01 T01290069  RH  067%=      5-min Rain = 0
KTH1 241059Z 29015KT 13/07 A2988 RMK A01 T01280068  RH  067%=      5-min Rain = 0
KTH1 241100Z 30013KT 13/07 A2988 RMK A01 T01270066  RH  066%=      5-min Rain = 0
KTH1 241101Z 30014KT 13/06 A2988 RMK A01 T01260063  RH  066%=      5-min Rain = 0
KTH1 241102Z 30015KT 13/06 A2988 RMK A01 T01260060  RH  064%=      5-min Rain = 0
KTH1 241103Z 30014KT 13/06 A2988 RMK A01 T01270057  RH  063%=      5-min Rain = 0
KTH1 241104Z 30016KT 13/05 A2988 RMK A01 T01270054  RH  061%=      5-min Rain = 0
KTH1 241105Z 30015KT 13/05 A2988 RMK A01 T01260049  RH  059%=      5-min Rain = 0
KTH1 241106Z 30016KT 13/05 A2988 RMK A01 T01270047  RH  058%=      5-min Rain = 0
KTH1 241107Z 30014KT 13/04 A2988 RMK A01 T01270043  RH  057%=      5-min Rain = 0
KTH1 241108Z 30015KT 13/04 A2989 RMK A01 T01260042  RH  056%=      5-min Rain = 0
KTH1 241109Z 30013KT 13/04 A2989 RMK A01 T01260040  RH  056%=      5-min Rain = 0
KTH1 241110Z 30015KT 13/04 A2989 RMK A01 T01260039  RH  055%=      5-min Rain = 0
KTH1 241111Z 30017KT 13/04 A2989 RMK A01 T01250035  RH  054%=      5-min Rain = 0
KTH1 241112Z 31015KT 13/03 A2989 RMK A01 T01260031  RH  053%=      5-min Rain = 0
KTH1 241113Z 30016KT 13/03 A2989 RMK A01 T01250030  RH  052%=      5-min Rain = 0
KTH1 241114Z 31015KT 13/03 A299 RMK A01 T01250027  RH  051%=      5-min Rain = 0
KTH1 241115Z 30013KT 12/03 A299 RMK A01 T01240027  RH  051%=      5-min Rain = 0
KTH1 241116Z 30013KT 12/03 A299 RMK A01 T01230027  RH  052%=      5-min Rain = 0
KTH1 241117Z 31013KT 12/03 A299 RMK A01 T01220026  RH  052%=      5-min Rain = 0
KTH1 241118Z 31014KT 12/02 A299 RMK A01 T01210024  RH  052%=      5-min Rain = 0
KTH1 241119Z 31015KT 12/02 A299 RMK A01 T01210023  RH  051%=      5-min Rain = 0
KTH1 241120Z 30014KT 12/02 A2991 RMK A01 T01200021  RH  050%=      5-min Rain = 0
KTH1 241121Z 31015KT 12/02 A2991 RMK A01 T01200020  RH  050%=      5-min Rain = 0
KTH1 241122Z 31014KT 12/02 A2991 RMK A01 T01200018  RH  050%=      5-min Rain = 0
KTH1 241123Z 32013G18KT 12/02 A2991 RMK A01 T01190019  RH  050%=      5-min Rain = 0
KTH1 241124Z 32013KT 12/02 A2991 RMK A01 T01180018  RH  051%=      5-min Rain = 0
KTH1 241125Z 31012KT 12/02 A2991 RMK A01 T01170018  RH  051%=      5-min Rain = 0
KTH1 241126Z 31012KT 12/02 A2991 RMK A01 T01150018  RH  051%=      5-min Rain = 0
KTH1 241127Z 31012KT 12/02 A2991 RMK A01 T01150018  RH  051%=      5-min Rain = 0
KTH1 241128Z 32012KT 11/02 A2991 RMK A01 T01140016  RH  051%=      5-min Rain = 0
KTH1 241129Z 31013KT 11/02 A2992 RMK A01 T01140017  RH  051%=      5-min Rain = 0
KTH1 241130Z 31012KT 11/02 A2992 RMK A01 T01130016  RH  051%=      5-min Rain = 0
KTH1 241131Z 31011KT 11/02 A2992 RMK A01 T01120015  RH  051%=      5-min Rain = 0
KTH1 241132Z 31013KT 11/02 A2992 RMK A01 T01120015  RH  051%=      5-min Rain = 0
KTH1 241133Z 31011KT 11/01 A2992 RMK A01 T01120014  RH  051%=      5-min Rain = 0
KTH1 241134Z 32011KT 11/01 A2992 RMK A01 T01120012  RH  050%=      5-min Rain = 0
KTH1 241135Z 32011KT 11/01 A2992 RMK A01 T01120011  RH  050%=      5-min Rain = 0
KTH1 241136Z 32011KT 11/01 A2992 RMK A01 T01120009  RH  049%=      5-min Rain = 0
KTH1 241137Z 32012KT 11/01 A2992 RMK A01 T01120008  RH  049%=      5-min Rain = 0
KTH1 241138Z 32011KT 11/01 A2993 RMK A01 T01130006  RH  048%=      5-min Rain = 0
KTH1 241139Z 32010KT 11/01 A2993 RMK A01 T01130007  RH  048%=      5-min Rain = 0
KTH1 241140Z 32010KT 11/01 A2993 RMK A01 T01130007  RH  048%=      5-min Rain = 0
KTH1 241141Z 32010G15KT 11/01 A2993 RMK A01 T01130005  RH  047%=      5-min Rain = 0
KTH1 241142Z 32011KT 11/01 A2993 RMK A01 T01130006  RH  048%=      5-min Rain = 0
KTH1 241143Z 32010KT 11/01 A2993 RMK A01 T01120005  RH  048%=      5-min Rain = 0
KTH1 241144Z 32011KT 11/01 A2993 RMK A01 T01120005  RH  048%=      5-min Rain = 0
KTH1 241145Z 32011KT 11/00 A2993 RMK A01 T01120004  RH  047%=      5-min Rain = 0
KTH1 241146Z 33011KT 11/00 A2993 RMK A01 T01120004  RH  047%=      5-min Rain = 0
KTH1 241147Z 32010KT 11/00 A2993 RMK A01 T01120003  RH  047%=      5-min Rain = 0
KTH1 241148Z 33011KT 11/00 A2993 RMK A01 T01120003  RH  047%=      5-min Rain = 0
KTH1 241149Z 32011KT 11/00 A2993 RMK A01 T01110002  RH  047%=      5-min Rain = 0
KTH1 241150Z 32010KT 11/00 A2993 RMK A01 T01110004  RH  048%=      5-min Rain = 0
KTH1 241151Z 32010KT 11/00 A2993 RMK A01 T01100004  RH  048%=      5-min Rain = 0
KTH1 241152Z 33010KT 11/00 A2993 RMK A01 T01090003  RH  048%=      5-min Rain = 0
KTH1 241153Z 32010KT 11/00 A2993 RMK A01 T01080003  RH  048%=      5-min Rain = 0
KTH1 241154Z 32011KT 11/00 A2993 RMK A01 T01090002  RH  048%=      5-min Rain = 0
KTH1 241155Z 33011KT 11/00 A2993 RMK A01 T01080001  RH  048%=      5-min Rain = 0
KTH1 241156Z 32011KT 11/00 A2993 RMK A01 T01080001  RH  047%=      5-min Rain = 0
KTH1 241157Z 32010KT 11/00 A2993 RMK A01 T01090001  RH  047%=      5-min Rain = 0
KTH1 241158Z 33012KT 11/00 A2994 RMK A01 T01080001  RH  047%=      5-min Rain = 0
KTH1 241159Z 33011KT 11/00 A2994 RMK A01 T01090001  RH  047%=      5-min Rain = 0
KTH1 241200Z 32010KT 11/00 A2994 RMK A01 T010900-0  RH  047%=      5-min Rain = 0
KTH1 241201Z 32010KT 11/00 A2994 RMK A01 T01090000  RH  047%=      5-min Rain = 0
KTH1 241202Z 32010KT 11/00 A2994 RMK A01 T01080000  RH  047%=      5-min Rain = 0
KTH1 241203Z 32010KT 11/00 A2994 RMK A01 T01080002  RH  048%=      5-min Rain = 0
KTH1 241204Z 32010KT 11/00 A2994 RMK A01 T01070001  RH  048%=      5-min Rain = 0
KTH1 241205Z 32010KT 11/M00 A2994 RMK A01 T01061001  RH  047%=      5-min Rain = 0
KTH1 241206Z 32009KT 11/M00 A2994 RMK A01 T01071001  RH  047%=      5-min Rain = 0
KTH1 241207Z 32010KT 11/00 A2994 RMK A01 T01070000  RH  048%=      5-min Rain = 0
KTH1 241208Z 32010KT 11/00 A2995 RMK A01 T010600-0  RH  048%=      5-min Rain = 0
KTH1 241209Z 32010KT 11/00 A2995 RMK A01 T01050001  RH  048%=      5-min Rain = 0
KTH1 241210Z 32010KT 11/00 A2995 RMK A01 T01050001  RH  049%=      5-min Rain = 0
KTH1 241211Z 31010KT 10/00 A2995 RMK A01 T01040002  RH  049%=      5-min Rain = 0
KTH1 241212Z 31010KT 10/00 A2995 RMK A01 T01040002  RH  049%=      5-min Rain = 0
KTH1 241213Z 31010KT 10/00 A2995 RMK A01 T01030003  RH  050%=      5-min Rain = 0
KTH1 241214Z 31010KT 10/00 A2995 RMK A01 T01020003  RH  050%=      5-min Rain = 0
KTH1 241215Z 31011KT 10/01 A2995 RMK A01 T01010005  RH  051%=      5-min Rain = 0
KTH1 241216Z 31011KT 10/00 A2995 RMK A01 T01000001  RH  050%=      5-min Rain = 0
KTH1 241217Z 30010KT 10/00 A2996 RMK A01 T01010002  RH  050%=      5-min Rain = 0
KTH1 241218Z 30009KT 10/00 A2996 RMK A01 T01000002  RH  051%=      5-min Rain = 0
KTH1 241219Z 31009KT 10/00 A2996 RMK A01 T01000004  RH  051%=      5-min Rain = 0
KTH1 241220Z 30009KT 10/00 A2996 RMK A01 T00990003  RH  051%=      5-min Rain = 0
KTH1 241221Z 31009KT 10/00 A2996 RMK A01 T00990003  RH  051%=      5-min Rain = 0
KTH1 241222Z 31009KT 10/00 A2996 RMK A01 T00990003  RH  051%=      5-min Rain = 0
KTH1 241223Z 31008KT 10/00 A2996 RMK A01 T00980003  RH  052%=      5-min Rain = 0
KTH1 241224Z 31009KT 10/00 A2996 RMK A01 T00980004  RH  052%=      5-min Rain = 0
KTH1 241225Z 31008KT 10/00 A2996 RMK A01 T00970003  RH  052%=      5-min Rain = 0
KTH1 241226Z 30007KT 10/00 A2997 RMK A01 T00970003  RH  052%=      5-min Rain = 0
KTH1 241227Z 31008KT 10/00 A2997 RMK A01 T00960004  RH  052%=      5-min Rain = 0
KTH1 241228Z 30008KT 10/00 A2997 RMK A01 T00960003  RH  052%=      5-min Rain = 0
KTH1 241229Z 30008KT 10/00 A2997 RMK A01 T00950003  RH  052%=      5-min Rain = 0
KTH1 241230Z 30008KT 10/00 A2997 RMK A01 T00950004  RH  053%=      5-min Rain = 0
KTH1 241231Z 30007KT 09/00 A2997 RMK A01 T00940002  RH  053%=      5-min Rain = 0
KTH1 241232Z 30007KT 09/00 A2997 RMK A01 T00930003  RH  053%=      5-min Rain = 0
KTH1 241233Z 30009KT 09/00 A2997 RMK A01 T00930002  RH  053%=      5-min Rain = 0
KTH1 241234Z 30008KT 09/00 A2997 RMK A01 T00930001  RH  053%=      5-min Rain = 0
KTH1 241235Z 30009KT 09/00 A2997 RMK A01 T00930002  RH  053%=      5-min Rain = 0
KTH1 241236Z 31009KT 09/00 A2997 RMK A01 T00920001  RH  053%=      5-min Rain = 0
KTH1 241237Z 30010KT 09/00 A2997 RMK A01 T00920001  RH  053%=      5-min Rain = 0
KTH1 241238Z 31010KT 09/00 A2998 RMK A01 T00920001  RH  053%=      5-min Rain = 0
KTH1 241239Z 30011KT 09/00 A2998 RMK A01 T00920002  RH  053%=      5-min Rain = 0
KTH1 241240Z 31012KT 09/00 A2998 RMK A01 T00920001  RH  053%=      5-min Rain = 0
KTH1 241241Z 31012KT 09/00 A2998 RMK A01 T009200-0  RH  052%=      5-min Rain = 0
KTH1 241242Z 31011KT 09/00 A2998 RMK A01 T00920001  RH  053%=      5-min Rain = 0
KTH1 241243Z 31011KT 09/00 A2998 RMK A01 T00920003  RH  054%=      5-min Rain = 0
KTH1 241244Z 30010KT 09/00 A2998 RMK A01 T00920002  RH  053%=      5-min Rain = 0
KTH1 241245Z 30011KT 09/00 A2998 RMK A01 T00910002  RH  054%=      5-min Rain = 0
KTH1 241246Z 31011KT 09/00 A2998 RMK A01 T00900003  RH  054%=      5-min Rain = 0
KTH1 241247Z 30011KT 09/00 A2998 RMK A01 T00900001  RH  054%=      5-min Rain = 0
KTH1 241248Z 30011KT 09/00 A2999 RMK A01 T00910000  RH  053%=      5-min Rain = 0
KTH1 241249Z 30011KT 09/00 A2999 RMK A01 T009100-0  RH  053%=      5-min Rain = 0
KTH1 241250Z 30010KT 09/00 A2999 RMK A01 T009100-0  RH  053%=      5-min Rain = 0
KTH1 241251Z 30010KT 09/00 A2999 RMK A01 T00910001  RH  053%=      5-min Rain = 0
KTH1 241252Z 30010KT 09/00 A2999 RMK A01 T00900002  RH  054%=      5-min Rain = 0
KTH1 241253Z 31010KT 09/00 A2999 RMK A01 T00900001  RH  054%=      5-min Rain = 0
KTH1 241254Z 30010KT 09/00 A2999 RMK A01 T00890002  RH  054%=      5-min Rain = 0
KTH1 241255Z 30010KT 09/00 A2999 RMK A01 T00880002  RH  055%=      5-min Rain = 0
KTH1 241256Z 30009KT 09/00 A2999 RMK A01 T00880002  RH  055%=      5-min Rain = 0
KTH1 241257Z 30009KT 09/00 A30 RMK A01 T00880003  RH  055%=      5-min Rain = 0
KTH1 241258Z 30010KT 09/00 A30 RMK A01 T00880001  RH  055%=      5-min Rain = 0
KTH1 241259Z 30009KT 09/00 A30 RMK A01 T00870000  RH  054%=      5-min Rain = 0
KTH1 241300Z 31010KT 09/00 A30 RMK A01 T00870000  RH  054%=      5-min Rain = 0
KTH1 241301Z 30008KT 09/M00 A2999 RMK A01 T00871002  RH  053%=      5-min Rain = 0
KTH1 241302Z 30008KT 09/00 A2999 RMK A01 T008800-0  RH  054%=      5-min Rain = 0
KTH1 241303Z 30008KT 09/00 A30 RMK A01 T008800-0  RH  054%=      5-min Rain = 0
KTH1 241304Z 30008KT 09/M00 A30 RMK A01 T00871001  RH  054%=      5-min Rain = 0
KTH1 241305Z 30008KT 09/00 A30 RMK A01 T00870000  RH  054%=      5-min Rain = 0
KTH1 241306Z 30007KT 09/00 A30 RMK A01 T00870001  RH  055%=      5-min Rain = 0
KTH1 241307Z 30008KT 09/00 A30 RMK A01 T00860001  RH  055%=      5-min Rain = 0
KTH1 241308Z 30008KT 09/00 A30 RMK A01 T00860000  RH  055%=      5-min Rain = 0
KTH1 241309Z 31008KT 09/00 A30 RMK A01 T00860001  RH  055%=      5-min Rain = 0
KTH1 241310Z 31008KT 09/00 A30 RMK A01 T00860001  RH  055%=      5-min Rain = 0
KTH1 241311Z 31008KT 09/00 A30 RMK A01 T008600-0  RH  055%=      5-min Rain = 0
KTH1 241312Z 31008KT 09/00 A30 RMK A01 T00850001  RH  056%=      5-min Rain = 0
KTH1 241313Z 31008KT 09/00 A30 RMK A01 T00850001  RH  056%=      5-min Rain = 0
KTH1 241314Z 31010KT 08/00 A3001 RMK A01 T00840001  RH  056%=      5-min Rain = 0
KTH1 241315Z 31009KT 08/M00 A3001 RMK A01 T00841001  RH  055%=      5-min Rain = 0
KTH1 241316Z 31010KT 08/00 A3001 RMK A01 T00840000  RH  056%=      5-min Rain = 0
KTH1 241317Z 31011KT 08/00 A3001 RMK A01 T00840000  RH  056%=      5-min Rain = 0
KTH1 241318Z 31011KT 08/00 A3001 RMK A01 T00840001  RH  056%=      5-min Rain = 0
KTH1 241319Z 31010KT 08/00 A3001 RMK A01 T00830002  RH  057%=      5-min Rain = 0
KTH1 241320Z 31012KT 08/00 A3001 RMK A01 T00820002  RH  057%=      5-min Rain = 0
KTH1 241321Z 31011KT 08/00 A3001 RMK A01 T00820002  RH  057%=      5-min Rain = 0
KTH1 241322Z 32011KT 08/00 A3001 RMK A01 T00820002  RH  057%=      5-min Rain = 0
KTH1 241323Z 31012KT 08/00 A3001 RMK A01 T00820000  RH  056%=      5-min Rain = 0
KTH1 241324Z 31012KT 08/M00 A3001 RMK A01 T00821001  RH  056%=      5-min Rain = 0
KTH1 241325Z 31010KT 08/00 A3001 RMK A01 T008300-0  RH  056%=      5-min Rain = 0
KTH1 241326Z 32011KT 08/00 A3001 RMK A01 T008300-0  RH  056%=      5-min Rain = 0
KTH1 241327Z 32010KT 08/M00 A3001 RMK A01 T00831001  RH  055%=      5-min Rain = 0
KTH1 241328Z 32010KT 08/00 A3001 RMK A01 T008300-0  RH  056%=      5-min Rain = 0
KTH1 241329Z 31009KT 08/00 A3001 RMK A01 T008300-0  RH  056%=      5-min Rain = 0
KTH1 241330Z 31011KT 08/M00 A3001 RMK A01 T00831001  RH  055%=      5-min Rain = 0
KTH1 241331Z 32011KT 08/M00 A3001 RMK A01 T00841002  RH  055%=      5-min Rain = 0
KTH1 241332Z 32010KT 08/M00 A3002 RMK A01 T00841001  RH  055%=      5-min Rain = 0
KTH1 241333Z 31009KT 08/00 A3002 RMK A01 T008400-0  RH  055%=      5-min Rain = 0
KTH1 241334Z 32010KT 09/M00 A3002 RMK A01 T00851002  RH  055%=      5-min Rain = 0
KTH1 241335Z 31010KT 09/M00 A3002 RMK A01 T00851002  RH  054%=      5-min Rain = 0
KTH1 241336Z 31011KT 09/M00 A3002 RMK A01 T00851001  RH  055%=      5-min Rain = 0
KTH1 241337Z 31010KT 09/M00 A3002 RMK A01 T00851001  RH  055%=      5-min Rain = 0
KTH1 241338Z 31010KT 09/00 A3002 RMK A01 T00850001  RH  055%=      5-min Rain = 0
KTH1 241339Z 31011KT 09/M00 A3002 RMK A01 T00851001  RH  055%=      5-min Rain = 0
KTH1 241340Z 32010KT 09/M00 A3002 RMK A01 T00851001  RH  055%=      5-min Rain = 0
KTH1 241341Z 32012KT 09/00 A3002 RMK A01 T00850001  RH  055%=      5-min Rain = 0
KTH1 241342Z 32012KT 09/M00 A3002 RMK A01 T00851001  RH  054%=      5-min Rain = 0
KTH1 241343Z 32011KT 09/M00 A3002 RMK A01 T00861003  RH  054%=      5-min Rain = 0
KTH1 241344Z 32012KT 09/M00 A3002 RMK A01 T00871002  RH  054%=      5-min Rain = 0
KTH1 241345Z 32012KT 09/M00 A3002 RMK A01 T00871002  RH  054%=      5-min Rain = 0
KTH1 241346Z 32011KT 09/M00 A3002 RMK A01 T00871002  RH  054%=      5-min Rain = 0
KTH1 241347Z 32011KT 09/M00 A3002 RMK A01 T00871002  RH  054%=      5-min Rain = 0
KTH1 241348Z 32013KT 09/M00 A3002 RMK A01 T00871001  RH  054%=      5-min Rain = 0
KTH1 241349Z 32011KT 09/00 A3002 RMK A01 T008700-0  RH  054%=      5-min Rain = 0
KTH1 241350Z 31012KT 09/00 A3002 RMK A01 T00870000  RH  055%=      5-min Rain = 0
KTH1 241351Z 32012KT 09/00 A3002 RMK A01 T008700-0  RH  054%=      5-min Rain = 0
KTH1 241352Z 32012KT 09/00 A3002 RMK A01 T008700-0  RH  054%=      5-min Rain = 0
KTH1 241353Z 31011KT 09/00 A3003 RMK A01 T008800-0  RH  054%=      5-min Rain = 0
KTH1 241354Z 32011KT 09/M00 A3003 RMK A01 T00881001  RH  053%=      5-min Rain = 0
KTH1 241355Z 31011KT 09/M00 A3003 RMK A01 T00891001  RH  053%=      5-min Rain = 0
KTH1 241356Z 32010KT 09/00 A3003 RMK A01 T008900-0  RH  054%=      5-min Rain = 0
KTH1 241357Z 32010KT 09/00 A3003 RMK A01 T008900-0  RH  053%=      5-min Rain = 0
KTH1 241358Z 32009KT 09/00 A3004 RMK A01 T009000-0  RH  053%=      5-min Rain = 0
KTH1 241359Z 32009KT 09/00 A3004 RMK A01 T00900000  RH  053%=      5-min Rain = 0
KTH1 241400Z 32009KT 09/00 A3004 RMK A01 T00900000  RH  053%=      5-min Rain = 0
KTH1 241401Z 32010KT 09/00 A3004 RMK A01 T00900001  RH  053%=      5-min Rain = 0
KTH1 241402Z 32009KT 09/00 A3004 RMK A01 T00910001  RH  053%=      5-min Rain = 0
KTH1 241403Z 32010KT 09/00 A3004 RMK A01 T00910002  RH  054%=      5-min Rain = 0
KTH1 241404Z 32008KT 09/00 A3004 RMK A01 T00910002  RH  054%=      5-min Rain = 0
KTH1 241405Z 32010KT 09/00 A3004 RMK A01 T00910003  RH  054%=      5-min Rain = 0
KTH1 241406Z 32012KT 09/00 A3004 RMK A01 T00920001  RH  053%=      5-min Rain = 0
KTH1 241407Z 32011KT 09/00 A3004 RMK A01 T00920002  RH  053%=      5-min Rain = 0
KTH1 241408Z 32013KT 09/00 A3005 RMK A01 T00930002  RH  053%=      5-min Rain = 0
KTH1 241409Z 33011KT 09/00 A3005 RMK A01 T00940001  RH  052%=      5-min Rain = 0
KTH1 241410Z 32010KT 10/00 A3005 RMK A01 T00950004  RH  053%=      5-min Rain = 0
KTH1 241411Z 32012KT 10/00 A3005 RMK A01 T00950003  RH  053%=      5-min Rain = 0
KTH1 241412Z 32012KT 10/00 A3005 RMK A01 T00950002  RH  052%=      5-min Rain = 0
KTH1 241413Z 33014KT 10/00 A3005 RMK A01 T00960002  RH  052%=      5-min Rain = 0
KTH1 241414Z 32012KT 10/00 A3005 RMK A01 T00960001  RH  051%=      5-min Rain = 0
KTH1 241415Z 32011KT 10/00 A3005 RMK A01 T00970004  RH  052%=      5-min Rain = 0
KTH1 241416Z 32013KT 10/00 A3005 RMK A01 T00970004  RH  052%=      5-min Rain = 0
KTH1 241417Z 32011KT 10/01 A3005 RMK A01 T00970005  RH  053%=      5-min Rain = 0
KTH1 241418Z 33012KT 10/00 A3005 RMK A01 T00970004  RH  052%=      5-min Rain = 0
KTH1 241419Z 33013KT 10/00 A3005 RMK A01 T00980004  RH  052%=      5-min Rain = 0
KTH1 241420Z 33011KT 10/00 A3005 RMK A01 T00980004  RH  052%=      5-min Rain = 0
KTH1 241421Z 33012KT 10/01 A3005 RMK A01 T00980005  RH  052%=      5-min Rain = 0
KTH1 241422Z 33013KT 10/01 A3005 RMK A01 T00990005  RH  052%=      5-min Rain = 0
KTH1 241423Z 34010KT 10/01 A3005 RMK A01 T00990005  RH  052%=      5-min Rain = 0
KTH1 241424Z 34009KT 10/01 A3006 RMK A01 T01000006  RH  052%=      5-min Rain = 0
KTH1 241425Z 34011G17KT 10/01 A3006 RMK A01 T01010007  RH  052%=      5-min Rain = 0
KTH1 241426Z 34010KT 10/01 A3006 RMK A01 T01010006  RH  051%=      5-min Rain = 0
KTH1 241427Z 33011KT 10/01 A3006 RMK A01 T01020006  RH  051%=      5-min Rain = 0
KTH1 241428Z 34010KT 10/01 A3006 RMK A01 T01020007  RH  052%=      5-min Rain = 0
KTH1 241429Z 33010KT 10/01 A3006 RMK A01 T01030008  RH  052%=      5-min Rain = 0
KTH1 241430Z 35012G17KT 10/01 A3006 RMK A01 T01030007  RH  051%=      5-min Rain = 0
KTH1 241431Z 35013KT 10/01 A3006 RMK A01 T01040007  RH  051%=      5-min Rain = 0
KTH1 241432Z 33012KT 10/01 A3006 RMK A01 T01040008  RH  051%=      5-min Rain = 0
KTH1 241433Z 33009KT 10/01 A3006 RMK A01 T01030007  RH  051%=      5-min Rain = 0
KTH1 241434Z 35012G17KT 10/01 A3007 RMK A01 T01030008  RH  052%=      5-min Rain = 0
KTH1 241435Z 34012KT 10/01 A3007 RMK A01 T01040007  RH  051%=      5-min Rain = 0
KTH1 241436Z 34010G15KT 10/01 A3007 RMK A01 T01040007  RH  051%=      5-min Rain = 0
KTH1 241437Z 34011G16KT 10/01 A3007 RMK A01 T01040009  RH  051%=      5-min Rain = 0
KTH1 241438Z 34016KT 11/01 A3007 RMK A01 T01050008  RH  051%=      5-min Rain = 0
KTH1 241439Z 34015G21KT 11/01 A3007 RMK A01 T01050007  RH  051%=      5-min Rain = 0
KTH1 241440Z 33014KT 10/01 A3007 RMK A01 T01040007  RH  051%=      5-min Rain = 0
KTH1 241441Z 33012KT 10/01 A3007 RMK A01 T01040007  RH  051%=      5-min Rain = 0
KTH1 241442Z 35013G22KT 11/01 A3007 RMK A01 T01050009  RH  051%=      5-min Rain = 0
KTH1 241443Z 35014KT 11/01 A3007 RMK A01 T01060008  RH  051%=      5-min Rain = 0
KTH1 241444Z 33013G20KT 11/01 A3007 RMK A01 T01060008  RH  051%=      5-min Rain = 0
KTH1 241445Z 33013G18KT 11/01 A3007 RMK A01 T01060007  RH  051%=      5-min Rain = 0
KTH1 241446Z 34011G18KT 11/01 A3007 RMK A01 T01060008  RH  051%=      5-min Rain = 0
KTH1 241447Z 35014G19KT 11/01 A3008 RMK A01 T01060009  RH  051%=      5-min Rain = 0
KTH1 241448Z 34017G26KT 11/01 A3008 RMK A01 T01060008  RH  051%=      5-min Rain = 0
KTH1 241449Z 34016G24KT 11/01 A3008 RMK A01 T01060008  RH  050%=      5-min Rain = 0
KTH1 241450Z 34011KT 11/01 A3008 RMK A01 T01060008  RH  051%=      5-min Rain = 0
KTH1 241451Z 34013G20KT 11/01 A3008 RMK A01 T01060008  RH  051%=      5-min Rain = 0
KTH1 241452Z 34011G17KT 11/01 A3008 RMK A01 T01070009  RH  051%=      5-min Rain = 0
KTH1 241453Z 34013G19KT 11/01 A3008 RMK A01 T01080010  RH  051%=      5-min Rain = 0
KTH1 241454Z 35014G19KT 11/01 A3008 RMK A01 T01080008  RH  050%=      5-min Rain = 0
KTH1 241455Z 33014G19KT 11/01 A3008 RMK A01 T01080009  RH  050%=      5-min Rain = 0
KTH1 241456Z 35017KT 11/01 A3008 RMK A01 T01080009  RH  050%=      5-min Rain = 0
KTH1 241457Z 34015G20KT 11/01 A3008 RMK A01 T01080009  RH  050%=      5-min Rain = 0
KTH1 241458Z 34016G21KT 11/01 A3008 RMK A01 T01080007  RH  050%=      5-min Rain = 0
KTH1 241459Z 35014G20KT 11/01 A3008 RMK A01 T01070008  RH  050%=      5-min Rain = 0
KTH1 241500Z 35018G23KT 11/01 A3008 RMK A01 T01080009  RH  050%=      5-min Rain = 0
KTH1 241501Z 34015KT 11/01 A3008 RMK A01 T01080007  RH  050%=      5-min Rain = 0
KTH1 241502Z 35014G21KT 11/01 A3009 RMK A01 T01080009  RH  050%=      5-min Rain = 0
KTH1 241503Z 33015G20KT 11/01 A3009 RMK A01 T01080008  RH  050%=      5-min Rain = 0
KTH1 241504Z 34013KT 11/01 A3009 RMK A01 T01080008  RH  050%=      5-min Rain = 0
KTH1 241505Z 34015G22KT 11/01 A3009 RMK A01 T01080008  RH  050%=      5-min Rain = 0
KTH1 241506Z 33016G21KT 11/01 A3009 RMK A01 T01090009  RH  050%=      5-min Rain = 0
KTH1 241507Z 34018G26KT 11/01 A3009 RMK A01 T01090008  RH  050%=      5-min Rain = 0
KTH1 241508Z 35014G21KT 11/01 A3009 RMK A01 T01080007  RH  050%=      5-min Rain = 0
KTH1 241509Z 35015G21KT 11/01 A3009 RMK A01 T01090008  RH  050%=      5-min Rain = 0
KTH1 241510Z 34018G24KT 11/01 A3009 RMK A01 T01090007  RH  049%=      5-min Rain = 0
KTH1 241511Z 35015G20KT 11/01 A3009 RMK A01 T01100007  RH  049%=      5-min Rain = 0
KTH1 241512Z 34016G22KT 11/01 A3009 RMK A01 T01090007  RH  049%=      5-min Rain = 0
KTH1 241513Z 34016KT 11/01 A3009 RMK A01 T01100007  RH  049%=      5-min Rain = 0
KTH1 241514Z 35015G21KT 11/01 A3009 RMK A01 T01090007  RH  049%=      5-min Rain = 0
KTH1 241515Z 34017G22KT 11/01 A3009 RMK A01 T01100008  RH  049%=      5-min Rain = 0
KTH1 241516Z 35016KT 11/01 A3009 RMK A01 T01100007  RH  049%=      5-min Rain = 0
KTH1 241517Z 34015G21KT 11/01 A3009 RMK A01 T01100007  RH  049%=      5-min Rain = 0
KTH1 241518Z 34014G19KT 11/01 A3009 RMK A01 T01100008  RH  049%=      5-min Rain = 0
KTH1 241519Z 34012G17KT 11/01 A3009 RMK A01 T01110009  RH  049%=      5-min Rain = 0
KTH1 241520Z 34015G21KT 11/01 A3009 RMK A01 T01120008  RH  049%=      5-min Rain = 0
KTH1 241521Z 34014G19KT 11/01 A3009 RMK A01 T01120008  RH  049%=      5-min Rain = 0
KTH1 241522Z 35015G20KT 11/01 A3009 RMK A01 T01130008  RH  049%=      5-min Rain = 0
KTH1 241523Z 35011KT 11/01 A3009 RMK A01 T01130009  RH  049%=      5-min Rain = 0
KTH1 241524Z 35014G21KT 11/01 A3009 RMK A01 T01130010  RH  049%=      5-min Rain = 0
KTH1 241525Z 35012KT 11/01 A3009 RMK A01 T01140008  RH  048%=      5-min Rain = 0
KTH1 241526Z 34013G19KT 11/01 A3009 RMK A01 T01140010  RH  049%=      5-min Rain = 0
KTH1 241527Z 34014G19KT 12/01 A3009 RMK A01 T01150008  RH  048%=      5-min Rain = 0
KTH1 241528Z 34014G22KT 11/01 A301 RMK A01 T01140007  RH  048%=      5-min Rain = 0
KTH1 241529Z 34013G18KT 11/01 A301 RMK A01 T01130007  RH  048%=      5-min Rain = 0
KTH1 241530Z 35019G26KT 11/01 A301 RMK A01 T01130007  RH  048%=      5-min Rain = 0
KTH1 241531Z 34015KT 11/01 A301 RMK A01 T01130008  RH  048%=      5-min Rain = 0
KTH1 241532Z 34018G23KT 11/01 A301 RMK A01 T01140007  RH  048%=      5-min Rain = 0
KTH1 241533Z 34016G22KT 11/01 A301 RMK A01 T01130005  RH  047%=      5-min Rain = 0
KTH1 241534Z 34015KT 11/01 A301 RMK A01 T01120005  RH  048%=      5-min Rain = 0
KTH1 241535Z 34014G21KT 11/01 A301 RMK A01 T01120005  RH  048%=      5-min Rain = 0
KTH1 241536Z 36015G22KT 11/01 A301 RMK A01 T01130007  RH  048%=      5-min Rain = 0
KTH1 241537Z 35016G21KT 11/01 A301 RMK A01 T01140007  RH  048%=      5-min Rain = 0
KTH1 241538Z 36016G21KT 11/01 A301 RMK A01 T01140006  RH  047%=      5-min Rain = 0
KTH1 241539Z 35019G24KT 12/01 A301 RMK A01 T01150006  RH  047%=      5-min Rain = 0
KTH1 241540Z 35015G21KT 12/01 A301 RMK A01 T01150006  RH  047%=      5-min Rain = 0
KTH1 241541Z 36017G22KT 11/01 A301 RMK A01 T01140005  RH  047%=      5-min Rain = 0
KTH1 241542Z 00019KT 11/00 A301 RMK A01 T01140004  RH  047%=      5-min Rain = 0
KTH1 241543Z 36016KT 11/01 A301 RMK A01 T01140005  RH  047%=      5-min Rain = 0
KTH1 241544Z 35016KT 11/01 A301 RMK A01 T01140005  RH  047%=      5-min Rain = 0
KTH1 241545Z 36017G23KT 11/01 A301 RMK A01 T01140006  RH  047%=      5-min Rain = 0
KTH1 241546Z 00018G23KT 12/01 A3011 RMK A01 T01150005  RH  047%=      5-min Rain = 0
KTH1 241547Z 35014G19KT 12/01 A301 RMK A01 T01150005  RH  047%=      5-min Rain = 0
KTH1 241548Z 36017KT 12/01 A301 RMK A01 T01150006  RH  047%=      5-min Rain = 0
KTH1 241549Z 35016KT 12/01 A301 RMK A01 T01150005  RH  046%=      5-min Rain = 0
KTH1 241550Z 35018G24KT 12/01 A3011 RMK A01 T01160005  RH  047%=      5-min Rain = 0
KTH1 241551Z 34013G20KT 12/01 A301 RMK A01 T01150005  RH  047%=      5-min Rain = 0
KTH1 241552Z 35013KT 12/01 A3011 RMK A01 T01160006  RH  047%=      5-min Rain = 0
KTH1 241553Z 34013G19KT 12/01 A3011 RMK A01 T01170007  RH  047%=      5-min Rain = 0
KTH1 241554Z 36016G21KT 12/01 A3011 RMK A01 T01180006  RH  046%=      5-min Rain = 0
KTH1 241555Z 35011KT 12/01 A3011 RMK A01 T01180007  RH  046%=      5-min Rain = 0
KTH1 241556Z 34012G18KT 12/01 A3011 RMK A01 T01190009  RH  047%=      5-min Rain = 0
KTH1 241557Z 36014G19KT 12/01 A3011 RMK A01 T01210008  RH  046%=      5-min Rain = 0
KTH1 241558Z 35014G20KT 12/01 A3011 RMK A01 T01200006  RH  046%=      5-min Rain = 0
KTH1 241559Z 35016KT 12/01 A3011 RMK A01 T01200006  RH  046%=      5-min Rain = 0
KTH1 241600Z 00012G18KT 12/01 A3011 RMK A01 T01190006  RH  046%=      5-min Rain = 0
KTH1 241601Z 36020KT 12/01 A3011 RMK A01 T01200005  RH  045%=      5-min Rain = 0
KTH1 241602Z 35017G22KT 12/00 A3011 RMK A01 T01190004  RH  045%=      5-min Rain = 0
KTH1 241603Z 35020KT 12/00 A3011 RMK A01 T01180004  RH  046%=      5-min Rain = 0
KTH1 241604Z 35019KT 12/00 A3011 RMK A01 T01170003  RH  046%=      5-min Rain = 0
KTH1 241605Z 35012G19KT 12/00 A3011 RMK A01 T01160004  RH  046%=      5-min Rain = 0
KTH1 241606Z 36016G23KT 12/01 A3011 RMK A01 T01180006  RH  046%=      5-min Rain = 0
KTH1 241607Z 35017G25KT 12/01 A3011 RMK A01 T01190005  RH  046%=      5-min Rain = 0
KTH1 241608Z 36016G21KT 12/01 A3011 RMK A01 T01190005  RH  046%=      5-min Rain = 0
KTH1 241609Z 35017KT 12/01 A3011 RMK A01 T01190005  RH  045%=      5-min Rain = 0
KTH1 241610Z 36017KT 12/01 A3011 RMK A01 T01190005  RH  046%=      5-min Rain = 0
KTH1 241611Z 34011G17KT 12/01 A3011 RMK A01 T01200007  RH  046%=      5-min Rain = 0
KTH1 241612Z 34016G21KT 12/01 A3011 RMK A01 T01220008  RH  046%=      5-min Rain = 0
KTH1 241613Z 36017KT 12/01 A3011 RMK A01 T01220005  RH  045%=      5-min Rain = 0
KTH1 241614Z 36015G22KT 12/01 A3011 RMK A01 T01210005  RH  045%=      5-min Rain = 0
KTH1 241615Z 35016G22KT 12/00 A3011 RMK A01 T01210004  RH  045%=      5-min Rain = 0
KTH1 241616Z 34016G22KT 12/01 A3011 RMK A01 T01200005  RH  045%=      5-min Rain = 0
KTH1 241617Z 35012G22KT 12/00 A3011 RMK A01 T01200004  RH  045%=      5-min Rain = 0
KTH1 241618Z 35014G22KT 12/01 A3011 RMK A01 T01210007  RH  046%=      5-min Rain = 0
KTH1 241619Z 36017KT 12/01 A3012 RMK A01 T01220006  RH  045%=      5-min Rain = 0
KTH1 241620Z 36013G25KT 12/01 A3012 RMK A01 T01230005  RH  045%=      5-min Rain = 0
KTH1 241621Z 34018G25KT 12/00 A3012 RMK A01 T01230004  RH  044%=      5-min Rain = 0
KTH1 241622Z 34015G22KT 12/00 A3012 RMK A01 T01220004  RH  044%=      5-min Rain = 0
KTH1 241623Z 35016G24KT 12/00 A3012 RMK A01 T01220004  RH  044%=      5-min Rain = 0
KTH1 241624Z 35015G20KT 12/00 A3012 RMK A01 T01220004  RH  044%=      5-min Rain = 0
KTH1 241625Z 35020KT 12/00 A3012 RMK A01 T01220002  RH  044%=      5-min Rain = 0
KTH1 241626Z 35013G19KT 12/00 A3012 RMK A01 T01220002  RH  044%=      5-min Rain = 0
KTH1 241627Z 35012G20KT 12/00 A3012 RMK A01 T01220004  RH  044%=      5-min Rain = 0
KTH1 241628Z 34010G15KT 12/00 A3012 RMK A01 T01230003  RH  044%=      5-min Rain = 0
KTH1 241629Z 36016G25KT 13/01 A3012 RMK A01 T01250005  RH  044%=      5-min Rain = 0
KTH1 241630Z 36017G24KT 12/00 A3012 RMK A01 T012400-0  RH  042%=      5-min Rain = 0
KTH1 241631Z 36018KT 12/00 A3012 RMK A01 T01230001  RH  043%=      5-min Rain = 0
KTH1 241632Z 00019G26KT 12/00 A3012 RMK A01 T01230001  RH  043%=      5-min Rain = 0
KTH1 241633Z 35018G24KT 12/00 A3012 RMK A01 T01230000  RH  043%=      5-min Rain = 0
KTH1 241634Z 35017KT 12/00 A3012 RMK A01 T01230000  RH  043%=      5-min Rain = 0
KTH1 241635Z 36012G19KT 12/00 A3012 RMK A01 T01220001  RH  043%=      5-min Rain = 0
KTH1 241636Z 35016G21KT 13/00 A3012 RMK A01 T01250004  RH  044%=      5-min Rain = 0
KTH1 241637Z 36013G19KT 13/00 A3012 RMK A01 T01260003  RH  043%=      5-min Rain = 0
KTH1 241638Z 35016G22KT 13/00 A3012 RMK A01 T01270004  RH  043%=      5-min Rain = 0
KTH1 241639Z 35013G19KT 13/00 A3012 RMK A01 T01280004  RH  043%=      5-min Rain = 0
KTH1 241640Z 34017G22KT 13/00 A3012 RMK A01 T01260002  RH  043%=      5-min Rain = 0
KTH1 241641Z 35015G20KT 13/00 A3012 RMK A01 T01250002  RH  043%=      5-min Rain = 0
KTH1 241642Z 35016G22KT 13/00 A3012 RMK A01 T01250003  RH  043%=      5-min Rain = 0
KTH1 241643Z 36017KT 13/00 A3012 RMK A01 T01260002  RH  043%=      5-min Rain = 0
KTH1 241644Z 00015KT 13/00 A3012 RMK A01 T01250002  RH  043%=      5-min Rain = 0
KTH1 241645Z 35016G21KT 13/00 A3012 RMK A01 T01260003  RH  043%=      5-min Rain = 0
KTH1 241646Z 35014G19KT 13/00 A3012 RMK A01 T01270002  RH  042%=      5-min Rain = 0
KTH1 241647Z 36014G20KT 13/00 A3012 RMK A01 T01270003  RH  043%=      5-min Rain = 0
KTH1 241648Z 35013KT 13/00 A3012 RMK A01 T01270003  RH  042%=      5-min Rain = 0
KTH1 241649Z 00013G20KT 13/00 A3012 RMK A01 T01270002  RH  042%=      5-min Rain = 0
KTH1 241650Z 36008G13KT 13/00 A3012 RMK A01 T01280003  RH  042%=      5-min Rain = 0
KTH1 241651Z 36013G20KT 13/01 A3013 RMK A01 T01300006  RH  042%=      5-min Rain = 0
KTH1 241652Z 34012G18KT 13/00 A3013 RMK A01 T01320004  RH  042%=      5-min Rain = 0
KTH1 241653Z 35015KT 13/00 A3013 RMK A01 T01320004  RH  041%=      5-min Rain = 0
KTH1 241654Z 35015KT 13/00 A3013 RMK A01 T01310002  RH  041%=      5-min Rain = 0
KTH1 241655Z 36015G21KT 13/00 A3013 RMK A01 T01290001  RH  041%=      5-min Rain = 0
KTH1 241656Z 36012G18KT 13/01 A3013 RMK A01 T01290005  RH  042%=      5-min Rain = 0
KTH1 241657Z 36015KT 13/00 A3013 RMK A01 T01310004  RH  042%=      5-min Rain = 0
KTH1 241658Z 35015G20KT 13/00 A3013 RMK A01 T01310002  RH  041%=      5-min Rain = 0
KTH1 241659Z 36017G23KT 13/00 A3013 RMK A01 T013000-0  RH  041%=      5-min Rain = 0
KTH1 241700Z 34011KT 13/00 A3013 RMK A01 T01280001  RH  042%=      5-min Rain = 0
KTH1 241701Z 34014G20KT 13/00 A3013 RMK A01 T01290004  RH  042%=      5-min Rain = 0
KTH1 241702Z 00013G19KT 13/00 A3013 RMK A01 T01300002  RH  041%=      5-min Rain = 0
KTH1 241703Z 35016KT 13/00 A3013 RMK A01 T01290001  RH  041%=      5-min Rain = 0
KTH1 241704Z 35019G26KT 13/00 A3013 RMK A01 T01290000  RH  041%=      5-min Rain = 0
KTH1 241705Z 36015G20KT 13/M00 A3013 RMK A01 T01281001  RH  041%=      5-min Rain = 0
KTH1 241706Z 00018KT 13/00 A3013 RMK A01 T01280000  RH  042%=      5-min Rain = 0
KTH1 241707Z 35017KT 13/00 A3013 RMK A01 T012800-0  RH  041%=      5-min Rain = 0
KTH1 241708Z 34013G19KT 13/00 A3013 RMK A01 T01300003  RH  042%=      5-min Rain = 0
KTH1 241709Z 35012G18KT 13/00 A3013 RMK A01 T01300003  RH  042%=      5-min Rain = 0
KTH1 241710Z 35013G19KT 13/00 A3013 RMK A01 T01310002  RH  041%=      5-min Rain = 0
KTH1 241711Z 00013G18KT 13/00 A3013 RMK A01 T01320004  RH  042%=      5-min Rain = 0
KTH1 241712Z 35012G17KT 13/00 A3013 RMK A01 T01330003  RH  041%=      5-min Rain = 0
KTH1 241713Z 00013G18KT 13/00 A3013 RMK A01 T01340004  RH  041%=      5-min Rain = 0
KTH1 241714Z 35013G19KT 13/00 A3013 RMK A01 T01340001  RH  040%=      5-min Rain = 0
KTH1 241715Z 33014KT 13/00 A3013 RMK A01 T01330002  RH  041%=      5-min Rain = 0
KTH1 241716Z 33014G21KT 13/00 A3013 RMK A01 T01330004  RH  041%=      5-min Rain = 0
KTH1 241717Z 36013KT 13/00 A3013 RMK A01 T01330004  RH  041%=      5-min Rain = 0
KTH1 241718Z 01015G21KT 13/00 A3013 RMK A01 T01340003  RH  041%=      5-min Rain = 0
KTH1 241719Z 35017KT 14/00 A3013 RMK A01 T01350001  RH  040%=      5-min Rain = 0
KTH1 241720Z 36015KT 13/00 A3013 RMK A01 T01340002  RH  040%=      5-min Rain = 0
KTH1 241721Z 35016G21KT 13/00 A3013 RMK A01 T01340002  RH  040%=      5-min Rain = 0
KTH1 241722Z 35015G20KT 13/00 A3013 RMK A01 T01340003  RH  041%=      5-min Rain = 0
KTH1 241723Z 34016KT 13/00 A3013 RMK A01 T01330002  RH  041%=      5-min Rain = 0
KTH1 241724Z 34014KT 13/00 A3013 RMK A01 T01320001  RH  041%=      5-min Rain = 0
KTH1 241725Z 35013KT 13/00 A3013 RMK A01 T01320001  RH  041%=      5-min Rain = 0
KTH1 241726Z 34017KT 13/00 A3013 RMK A01 T01330003  RH  041%=      5-min Rain = 0
KTH1 241727Z 34013KT 13/00 A3013 RMK A01 T01330003  RH  041%=      5-min Rain = 0
KTH1 241728Z 33012KT 13/00 A3013 RMK A01 T01340004  RH  041%=      5-min Rain = 0
KTH1 241729Z 36015G21KT 14/00 A3013 RMK A01 T01350004  RH  041%=      5-min Rain = 0
KTH1 241730Z 00014G19KT 14/00 A3013 RMK A01 T01350001  RH  040%=      5-min Rain = 0
KTH1 241731Z 34014G19KT 14/00 A3013 RMK A01 T01360002  RH  040%=      5-min Rain = 0
KTH1 241732Z 34016G24KT 14/00 A3013 RMK A01 T01360003  RH  040%=      5-min Rain = 0
KTH1 241733Z 33014G19KT 14/00 A3013 RMK A01 T01350002  RH  040%=      5-min Rain = 0
KTH1 241734Z 34012KT 13/00 A3013 RMK A01 T01340002  RH  040%=      5-min Rain = 0
KTH1 241735Z 35012KT 13/00 A3013 RMK A01 T01340002  RH  040%=      5-min Rain = 0
KTH1 241736Z 35011G17KT 14/00 A3013 RMK A01 T01350003  RH  040%=      5-min Rain = 0
KTH1 241737Z 34013KT 14/00 A3013 RMK A01 T01380004  RH  040%=      5-min Rain = 0
KTH1 241738Z 35013G18KT 14/00 A3013 RMK A01 T01380004  RH  040%=      5-min Rain = 0
KTH1 241739Z 36017G23KT 14/00 A3013 RMK A01 T01390003  RH  039%=      5-min Rain = 0
KTH1 241740Z 36012G17KT 14/00 A3013 RMK A01 T01380000  RH  039%=      5-min Rain = 0
KTH1 241741Z 34012KT 14/00 A3013 RMK A01 T01370003  RH  040%=      5-min Rain = 0
KTH1 241742Z 35017G22KT 14/00 A3013 RMK A01 T01370003  RH  040%=      5-min Rain = 0
KTH1 241743Z 35015G22KT 14/00 A3013 RMK A01 T01370002  RH  040%=      5-min Rain = 0
KTH1 241744Z 35012KT 14/00 A3013 RMK A01 T01380002  RH  040%=      5-min Rain = 0
KTH1 241745Z 34011G16KT 14/00 A3013 RMK A01 T01380003  RH  040%=      5-min Rain = 0
KTH1 241746Z 33013G18KT 14/01 A3013 RMK A01 T01380005  RH  040%=      5-min Rain = 0
KTH1 241747Z 35013G19KT 14/00 A3013 RMK A01 T01390003  RH  039%=      5-min Rain = 0
KTH1 241748Z 34015G21KT 14/00 A3013 RMK A01 T01390004  RH  039%=      5-min Rain = 0
KTH1 241749Z 35013KT 14/00 A3013 RMK A01 T01380002  RH  039%=      5-min Rain = 0
KTH1 241750Z 35012G20KT 14/01 A3013 RMK A01 T01380006  RH  040%=      5-min Rain = 0
KTH1 241751Z 33013G19KT 14/00 A3013 RMK A01 T01400004  RH  039%=      5-min Rain = 0
KTH1 241752Z 33015KT 14/00 A3013 RMK A01 T01390003  RH  039%=      5-min Rain = 0
KTH1 241753Z 36015G21KT 14/01 A3013 RMK A01 T01400006  RH  040%=      5-min Rain = 0
KTH1 241754Z 35014G21KT 14/00 A3013 RMK A01 T01410002  RH  039%=      5-min Rain = 0
KTH1 241755Z 34012KT 14/00 A3013 RMK A01 T01400004  RH  039%=      5-min Rain = 0
KTH1 241756Z 34014KT 14/00 A3013 RMK A01 T01400002  RH  039%=      5-min Rain = 0
KTH1 241757Z 34014G20KT 14/00 A3013 RMK A01 T01400003  RH  039%=      5-min Rain = 0
KTH1 241758Z 34010KT 14/00 A3013 RMK A01 T01410004  RH  039%=      5-min Rain = 0
KTH1 241759Z 35015G20KT 14/00 A3013 RMK A01 T01420004  RH  039%=      5-min Rain = 0
KTH1 241800Z 34015KT 14/00 A3013 RMK A01 T01420001  RH  038%=      5-min Rain = 0
KTH1 241801Z 33013G18KT 14/00 A3013 RMK A01 T01410003  RH  039%=      5-min Rain = 0
KTH1 241802Z 33015G21KT 14/00 A3013 RMK A01 T01410004  RH  039%=      5-min Rain = 0
KTH1 241803Z 34014KT 14/00 A3013 RMK A01 T01420002  RH  038%=      5-min Rain = 0
KTH1 241804Z 35016G22KT 14/00 A3013 RMK A01 T01420002  RH  038%=      5-min Rain = 0
KTH1 241805Z 35017G22KT 14/00 A3013 RMK A01 T01420002  RH  038%=      5-min Rain = 0
KTH1 241806Z 02015G22KT 14/00 A3013 RMK A01 T01430004  RH  038%=      5-min Rain = 0
KTH1 241807Z 01014G20KT 14/00 A3013 RMK A01 T01440001  RH  037%=      5-min Rain = 0
KTH1 241808Z 02010KT 14/00 A3013 RMK A01 T01430002  RH  038%=      5-min Rain = 0
KTH1 241809Z 00011G16KT 14/00 A3013 RMK A01 T01440004  RH  038%=      5-min Rain = 0
KTH1 241810Z 35013G19KT 15/01 A3013 RMK A01 T01470005  RH  038%=      5-min Rain = 0
KTH1 241811Z 34014KT 15/00 A3013 RMK A01 T014600-0  RH  037%=      5-min Rain = 0
KTH1 241812Z 35014G19KT 14/M00 A3013 RMK A01 T01411003  RH  037%=      5-min Rain = 0
KTH1 241813Z 00016KT 14/M00 A3013 RMK A01 T01401001  RH  038%=      5-min Rain = 0
KTH1 241814Z 35012KT 14/00 A3013 RMK A01 T01410001  RH  038%=      5-min Rain = 0
KTH1 241815Z 34013G18KT 14/00 A3013 RMK A01 T01430004  RH  039%=      5-min Rain = 0
KTH1 241816Z 34012KT 14/00 A3013 RMK A01 T01440003  RH  038%=      5-min Rain = 0
KTH1 241817Z 35014KT 14/00 A3013 RMK A01 T01440002  RH  038%=      5-min Rain = 0
KTH1 241818Z 36017KT 15/00 A3013 RMK A01 T01450001  RH  037%=      5-min Rain = 0
KTH1 241819Z 34012KT 14/M00 A3013 RMK A01 T01431001  RH  037%=      5-min Rain = 0
KTH1 241820Z 34013G18KT 14/00 A3013 RMK A01 T01430003  RH  038%=      5-min Rain = 0
KTH1 241821Z 36016G22KT 14/00 A3013 RMK A01 T01440002  RH  038%=      5-min Rain = 0
KTH1 241822Z 01015KT 14/00 A3013 RMK A01 T01440000  RH  037%=      5-min Rain = 0
KTH1 241823Z 36017KT 14/M00 A3012 RMK A01 T01441001  RH  037%=      5-min Rain = 0
KTH1 241824Z 35014G21KT 14/00 A3013 RMK A01 T01440001  RH  037%=      5-min Rain = 0
KTH1 241825Z 35014KT 15/01 A3013 RMK A01 T01470005  RH  038%=      5-min Rain = 0
KTH1 241826Z 00013KT 15/00 A3012 RMK A01 T01480001  RH  036%=      5-min Rain = 0
KTH1 241827Z 36013KT 15/M00 A3012 RMK A01 T01461002  RH  036%=      5-min Rain = 0
KTH1 241828Z 36013G20KT 14/00 A3012 RMK A01 T01440000  RH  037%=      5-min Rain = 0
KTH1 241829Z 35015G21KT 15/00 A3012 RMK A01 T01450002  RH  037%=      5-min Rain = 0
KTH1 241830Z 01013G21KT 15/00 A3012 RMK A01 T01470002  RH  037%=      5-min Rain = 0
KTH1 241831Z 00014G20KT 15/00 A3012 RMK A01 T01480002  RH  037%=      5-min Rain = 0
KTH1 241832Z 36014G19KT 15/M00 A3012 RMK A01 T01471001  RH  036%=      5-min Rain = 0
KTH1 241833Z 35014G19KT 15/M00 A3012 RMK A01 T01451001  RH  037%=      5-min Rain = 0
KTH1 241834Z 36016KT 15/M00 A3012 RMK A01 T01451001  RH  037%=      5-min Rain = 0
KTH1 241835Z 35014KT 15/00 A3012 RMK A01 T01450001  RH  037%=      5-min Rain = 0
KTH1 241836Z 35013G18KT 15/M00 A3012 RMK A01 T01471001  RH  037%=      5-min Rain = 0
KTH1 241837Z 01012KT 15/00 A3012 RMK A01 T014700-0  RH  037%=      5-min Rain = 0
KTH1 241838Z 00015KT 15/00 A3012 RMK A01 T01480001  RH  037%=      5-min Rain = 0
KTH1 241839Z 35014G19KT 15/M00 A3012 RMK A01 T01481001  RH  036%=      5-min Rain = 0
KTH1 241840Z 34014G19KT 15/00 A3012 RMK A01 T01480003  RH  037%=      5-min Rain = 0
KTH1 241841Z 36014G19KT 15/00 A3012 RMK A01 T01490001  RH  036%=      5-min Rain = 0
KTH1 241842Z 01012KT 15/00 A3012 RMK A01 T01490002  RH  037%=      5-min Rain = 0
KTH1 241843Z 35010KT 15/00 A3012 RMK A01 T01510003  RH  036%=      5-min Rain = 0
KTH1 241844Z 34013G18KT 15/00 A3012 RMK A01 T01520002  RH  036%=      5-min Rain = 0
KTH1 241845Z 35014KT 15/00 A3012 RMK A01 T015100-0  RH  036%=      5-min Rain = 0
KTH1 241846Z 34012KT 15/M00 A3012 RMK A01 T01481001  RH  036%=      5-min Rain = 0
KTH1 241847Z 36016G21KT 15/00 A3012 RMK A01 T01480001  RH  037%=      5-min Rain = 0
KTH1 241848Z 01013G18KT 15/00 A3012 RMK A01 T014900-0  RH  036%=      5-min Rain = 0
KTH1 241849Z 01011KT 15/M00 A3012 RMK A01 T01491002  RH  036%=      5-min Rain = 0
KTH1 241850Z 36012KT 15/00 A3012 RMK A01 T01490000  RH  036%=      5-min Rain = 0
KTH1 241851Z 36016KT 15/00 A3011 RMK A01 T01510001  RH  036%=      5-min Rain = 0
KTH1 241852Z 00014KT 15/M00 A3012 RMK A01 T01511002  RH  035%=      5-min Rain = 0
KTH1 241853Z 36017KT 15/M00 A3011 RMK A01 T01511002  RH  035%=      5-min Rain = 0
KTH1 241854Z 36013KT 15/M00 A3011 RMK A01 T01491004  RH  035%=      5-min Rain = 0
KTH1 241855Z 35012G17KT 15/M00 A3011 RMK A01 T01491001  RH  036%=      5-min Rain = 0
KTH1 241856Z 00013KT 15/00 A3011 RMK A01 T01510000  RH  036%=      5-min Rain = 0
KTH1 241857Z 36014G20KT 15/M00 A3011 RMK A01 T01521002  RH  035%=      5-min Rain = 0
KTH1 241858Z 34014G19KT 15/00 A3011 RMK A01 T01510001  RH  036%=      5-min Rain = 0
KTH1 241859Z 35013G18KT 15/M00 A3011 RMK A01 T01511001  RH  035%=      5-min Rain = 0
KTH1 241900Z 35013G21KT 15/00 A3011 RMK A01 T01520004  RH  036%=      5-min Rain = 0
KTH1 241901Z 35014KT 16/00 A3011 RMK A01 T01550002  RH  035%=      5-min Rain = 0
KTH1 241902Z 00014KT 15/M00 A3011 RMK A01 T01541001  RH  035%=      5-min Rain = 0
KTH1 241903Z 36015KT 15/00 A3011 RMK A01 T015300-0  RH  035%=      5-min Rain = 0
KTH1 241904Z 36014G19KT 15/00 A3011 RMK A01 T01540000  RH  035%=      5-min Rain = 0
KTH1 241905Z 01013G18KT 16/00 A3011 RMK A01 T01550001  RH  035%=      5-min Rain = 0
KTH1 241906Z 02016KT 16/M00 A3011 RMK A01 T01551002  RH  034%=      5-min Rain = 0
KTH1 241907Z 01014KT 15/M00 A3011 RMK A01 T01541003  RH  034%=      5-min Rain = 0
KTH1 241908Z 01013G18KT 15/M00 A301 RMK A01 T01521004  RH  034%=      5-min Rain = 0
KTH1 241909Z 02012G19KT 15/M00 A301 RMK A01 T01521001  RH  035%=      5-min Rain = 0
KTH1 241910Z 02013KT 15/00 A301 RMK A01 T015400-0  RH  035%=      5-min Rain = 0
KTH1 241911Z 00011KT 16/00 A301 RMK A01 T01550000  RH  035%=      5-min Rain = 0
KTH1 241912Z 01011G16KT 16/00 A301 RMK A01 T01580003  RH  035%=      5-min Rain = 0
KTH1 241913Z 02017G23KT 16/00 A301 RMK A01 T01600001  RH  034%=      5-min Rain = 0
KTH1 241914Z 01015G21KT 16/M00 A301 RMK A01 T01581003  RH  033%=      5-min Rain = 0
KTH1 241915Z 01014G19KT 16/M00 A301 RMK A01 T01561004  RH  034%=      5-min Rain = 0
KTH1 241916Z 01016KT 15/M01 A301 RMK A01 T01531005  RH  034%=      5-min Rain = 0
KTH1 241917Z 36011KT 15/M00 A301 RMK A01 T01511004  RH  034%=      5-min Rain = 0
KTH1 241918Z 35010KT 15/00 A301 RMK A01 T01520001  RH  036%=      5-min Rain = 0
KTH1 241919Z 35013G18KT 16/00 A301 RMK A01 T01550002  RH  035%=      5-min Rain = 0
KTH1 241920Z 01010G18KT 16/00 A301 RMK A01 T01570002  RH  035%=      5-min Rain = 0
KTH1 241921Z 01015KT 16/00 A301 RMK A01 T01590000  RH  034%=      5-min Rain = 0
KTH1 241922Z 00011KT 16/M00 A3009 RMK A01 T01571004  RH  033%=      5-min Rain = 0
KTH1 241923Z 35009KT 16/M00 A3009 RMK A01 T01551001  RH  034%=      5-min Rain = 0
KTH1 241924Z 01017KT 16/00 A3009 RMK A01 T01560001  RH  035%=      5-min Rain = 0
KTH1 241925Z 00014G19KT 16/M00 A3009 RMK A01 T01571003  RH  034%=      5-min Rain = 0
KTH1 241926Z 00010G15KT 16/M00 A3009 RMK A01 T01561001  RH  034%=      5-min Rain = 0
KTH1 241927Z 00010KT 16/M00 A3009 RMK A01 T01571002  RH  034%=      5-min Rain = 0
KTH1 241928Z 36017KT 16/00 A3009 RMK A01 T015800-0  RH  034%=      5-min Rain = 0
KTH1 241929Z 35018KT 16/00 A3009 RMK A01 T015900-0  RH  034%=      5-min Rain = 0
KTH1 241930Z 36011G17KT 16/00 A3009 RMK A01 T01570001  RH  034%=      5-min Rain = 0
KTH1 241931Z 35016KT 16/00 A3009 RMK A01 T01580001  RH  034%=      5-min Rain = 0
KTH1 241932Z 35012G17KT 16/M00 A3009 RMK A01 T01581001  RH  034%=      5-min Rain = 0
KTH1 241933Z 36011G17KT 16/M00 A3009 RMK A01 T01571001  RH  034%=      5-min Rain = 0
KTH1 241934Z 36013KT 16/00 A3009 RMK A01 T015700-0  RH  034%=      5-min Rain = 0
KTH1 241935Z 35012G17KT 16/00 A3009 RMK A01 T01590002  RH  034%=      5-min Rain = 0
KTH1 241936Z 00015KT 16/00 A3009 RMK A01 T01610000  RH  033%=      5-min Rain = 0
KTH1 241937Z 01011KT 16/M00 A3009 RMK A01 T01601001  RH  033%=      5-min Rain = 0
KTH1 241938Z 00009G14KT 16/00 A3009 RMK A01 T01600002  RH  034%=      5-min Rain = 0
KTH1 241939Z 35014G19KT 16/00 A3009 RMK A01 T01620001  RH  034%=      5-min Rain = 0
KTH1 241940Z 35013G20KT 16/00 A3009 RMK A01 T01600000  RH  034%=      5-min Rain = 0
KTH1 241941Z 36013KT 16/M00 A3009 RMK A01 T01591003  RH  033%=      5-min Rain = 0
KTH1 241942Z 36016KT 16/M00 A3009 RMK A01 T01581003  RH  033%=      5-min Rain = 0
KTH1 241943Z 01017G22KT 16/M00 A3009 RMK A01 T01581002  RH  034%=      5-min Rain = 0
KTH1 241944Z 35014G20KT 16/M00 A3009 RMK A01 T01581003  RH  033%=      5-min Rain = 0
KTH1 241945Z 35014G19KT 16/M00 A3009 RMK A01 T01581002  RH  033%=      5-min Rain = 0
KTH1 241946Z 36017G22KT 16/00 A3008 RMK A01 T015900-0  RH  034%=      5-min Rain = 0
KTH1 241947Z 35014KT 16/00 A3009 RMK A01 T01590000  RH  034%=      5-min Rain = 0
KTH1 241948Z 35011G17KT 16/M00 A3008 RMK A01 T01591001  RH  034%=      5-min Rain = 0
KTH1 241949Z 01014G19KT 16/00 A3009 RMK A01 T015900-0  RH  034%=      5-min Rain = 0
KTH1 241950Z 01015G21KT 16/M00 A3008 RMK A01 T01601003  RH  033%=      5-min Rain = 0
KTH1 241951Z 35011G16KT 16/M00 A3008 RMK A01 T01601001  RH  033%=      5-min Rain = 0
KTH1 241952Z 02012KT 16/00 A3008 RMK A01 T01620002  RH  034%=      5-min Rain = 0
KTH1 241953Z 01009G14KT 16/M00 A3008 RMK A01 T01631002  RH  033%=      5-min Rain = 0
KTH1 241954Z 35011G16KT 16/00 A3008 RMK A01 T016200-0  RH  033%=      5-min Rain = 0
KTH1 241955Z 35010G15KT 16/00 A3008 RMK A01 T01640002  RH  033%=      5-min Rain = 0
KTH1 241956Z 36016G22KT 17/00 A3008 RMK A01 T01650001  RH  033%=      5-min Rain = 0
KTH1 241957Z 00013G18KT 17/00 A3008 RMK A01 T01650002  RH  033%=      5-min Rain = 0
KTH1 241958Z 01012KT 17/M00 A3008 RMK A01 T01651001  RH  032%=      5-min Rain = 0
KTH1 241959Z 36011KT 17/M00 A3008 RMK A01 T01661002  RH  032%=      5-min Rain = 0
KTH1 242000Z 01011G16KT 17/00 A3008 RMK A01 T01660000  RH  032%=      5-min Rain = 0
KTH1 242001Z 01014KT 17/M00 A3008 RMK A01 T01671004  RH  031%=      5-min Rain = 0
KTH1 242002Z 00011G16KT 17/M00 A3008 RMK A01 T01651004  RH  032%=      5-min Rain = 0
KTH1 242003Z 02013G18KT 17/M00 A3008 RMK A01 T01651002  RH  032%=      5-min Rain = 0
KTH1 242004Z 01013G18KT 17/M00 A3007 RMK A01 T01661001  RH  032%=      5-min Rain = 0
KTH1 242005Z 01011KT 17/M00 A3007 RMK A01 T01661001  RH  032%=      5-min Rain = 0
KTH1 242006Z 03014G19KT 17/M00 A3007 RMK A01 T01671002  RH  032%=      5-min Rain = 0
KTH1 242007Z 02010G15KT 17/M00 A3007 RMK A01 T01671002  RH  032%=      5-min Rain = 0
KTH1 242008Z 01012KT 17/M00 A3007 RMK A01 T01671003  RH  031%=      5-min Rain = 0
KTH1 242009Z 35013G20KT 17/M00 A3007 RMK A01 T01681001  RH  032%=      5-min Rain = 0
KTH1 242010Z 35018KT 17/M00 A3007 RMK A01 T01671002  RH  032%=      5-min Rain = 0
KTH1 242011Z 36011G17KT 16/M01 A3007 RMK A01 T01631005  RH  032%=      5-min Rain = 0
KTH1 242012Z 00012G19KT 16/00 A3007 RMK A01 T016200-0  RH  033%=      5-min Rain = 0
KTH1 242013Z 36011KT 16/M00 A3007 RMK A01 T01641001  RH  032%=      5-min Rain = 0
KTH1 242014Z 01013KT 17/00 A3007 RMK A01 T016600-0  RH  032%=      5-min Rain = 0
KTH1 242015Z 01011KT 17/M00 A3007 RMK A01 T01681001  RH  032%=      5-min Rain = 0
KTH1 242016Z 01008KT 17/M00 A3007 RMK A01 T01681001  RH  032%=      5-min Rain = 0
KTH1 242017Z 02009G15KT 17/00 A3007 RMK A01 T017000-0  RH  032%=      5-min Rain = 0
KTH1 242018Z 02014KT 17/M00 A3007 RMK A01 T01691002  RH  031%=      5-min Rain = 0
KTH1 242019Z 36014KT 17/M00 A3008 RMK A01 T01671003  RH  031%=      5-min Rain = 0
KTH1 242020Z 02011KT 17/M00 A3008 RMK A01 T01661003  RH  032%=      5-min Rain = 0
KTH1 242021Z 02012KT 17/M00 A3007 RMK A01 T01651004  RH  032%=      5-min Rain = 0
KTH1 242022Z 35010KT 17/M00 A3007 RMK A01 T01651002  RH  032%=      5-min Rain = 0
KTH1 242023Z 34011G17KT 17/00 A3007 RMK A01 T01660002  RH  033%=      5-min Rain = 0
KTH1 242024Z 34013KT 17/00 A3007 RMK A01 T01680001  RH  032%=      5-min Rain = 0
KTH1 242025Z 35011KT 17/00 A3007 RMK A01 T01680002  RH  032%=      5-min Rain = 0
KTH1 242026Z 35011G20KT 17/00 A3007 RMK A01 T016800-0  RH  032%=      5-min Rain = 0
KTH1 242027Z 03013KT 17/00 A3007 RMK A01 T01690001  RH  032%=      5-min Rain = 0
KTH1 242028Z 01010KT 17/M00 A3008 RMK A01 T01681003  RH  031%=      5-min Rain = 0
KTH1 242029Z 36009KT 17/00 A3007 RMK A01 T01680000  RH  032%=      5-min Rain = 0
KTH1 242030Z 02010G15KT 17/01 A3008 RMK A01 T01710005  RH  033%=      5-min Rain = 0
KTH1 242031Z 01013KT 17/00 A3008 RMK A01 T01730002  RH  031%=      5-min Rain = 0
KTH1 242032Z 01011KT 17/M00 A3008 RMK A01 T01721003  RH  030%=      5-min Rain = 0
KTH1 242033Z 02010KT 17/M00 A3008 RMK A01 T01701002  RH  031%=      5-min Rain = 0
KTH1 242034Z 00011KT 17/M00 A3008 RMK A01 T01701002  RH  031%=      5-min Rain = 0
KTH1 242035Z 01009KT 17/M00 A3008 RMK A01 T01691003  RH  031%=      5-min Rain = 0
KTH1 242036Z 01012KT 17/M00 A3007 RMK A01 T01691001  RH  031%=      5-min Rain = 0
KTH1 242037Z 02015KT 17/M00 A3008 RMK A01 T01711003  RH  031%=      5-min Rain = 0
KTH1 242038Z 03013KT 17/M01 A3007 RMK A01 T01701005  RH  030%=      5-min Rain = 0
KTH1 242039Z 02012KT 17/M00 A3008 RMK A01 T01691004  RH  031%=      5-min Rain = 0
KTH1 242040Z 03011G16KT 17/M00 A3007 RMK A01 T01681003  RH  031%=      5-min Rain = 0
KTH1 242041Z 03014G19KT 17/M00 A3007 RMK A01 T01691003  RH  031%=      5-min Rain = 0
KTH1 242042Z 01010G15KT 17/M00 A3008 RMK A01 T01681003  RH  031%=      5-min Rain = 0
KTH1 242043Z 01012KT 17/M00 A3008 RMK A01 T01681002  RH  031%=      5-min Rain = 0
KTH1 242044Z 36007KT 17/M00 A3008 RMK A01 T01681001  RH  032%=      5-min Rain = 0
KTH1 242045Z 01008G14KT 17/00 A3008 RMK A01 T01690001  RH  032%=      5-min Rain = 0
KTH1 242046Z 35015G21KT 17/00 A3008 RMK A01 T01730002  RH  031%=      5-min Rain = 0
KTH1 242047Z 02012G17KT 17/M00 A3008 RMK A01 T01711004  RH  030%=      5-min Rain = 0
KTH1 242048Z 01011KT 17/M00 A3008 RMK A01 T01701004  RH  031%=      5-min Rain = 0
KTH1 242049Z 01011G16KT 17/M00 A3008 RMK A01 T01701003  RH  031%=      5-min Rain = 0
KTH1 242050Z 00012G18KT 17/00 A3008 RMK A01 T017100-0  RH  031%=      5-min Rain = 0
KTH1 242051Z 35013G18KT 17/M00 A3008 RMK A01 T01731001  RH  031%=      5-min Rain = 0
KTH1 242052Z 34014G20KT 17/M00 A3008 RMK A01 T01701001  RH  031%=      5-min Rain = 0
KTH1 242053Z 35014KT 17/M00 A3008 RMK A01 T01691002  RH  031%=      5-min Rain = 0
KTH1 242054Z 01014KT 17/M00 A3008 RMK A01 T01681002  RH  031%=      5-min Rain = 0
KTH1 242055Z 01011G16KT 17/M00 A3008 RMK A01 T01671004  RH  031%=      5-min Rain = 0
KTH1 242056Z 00013G23KT 17/M00 A3008 RMK A01 T01681001  RH  032%=      5-min Rain = 0
KTH1 242057Z 00013G20KT 17/M00 A3008 RMK A01 T01701002  RH  031%=      5-min Rain = 0
KTH1 242058Z 01011G17KT 17/M00 A3008 RMK A01 T01711002  RH  031%=      5-min Rain = 0
KTH1 242059Z 02011G16KT 17/M00 A3008 RMK A01 T01711004  RH  030%=      5-min Rain = 0
KTH1 242100Z 01011KT 17/M00 A3008 RMK A01 T01711003  RH  031%=      5-min Rain = 0
KTH1 242101Z 35011KT 17/00 A3008 RMK A01 T01720000  RH  031%=      5-min Rain = 0
KTH1 242102Z 34013KT 17/00 A3008 RMK A01 T01740001  RH  031%=      5-min Rain = 0
KTH1 242103Z 36011G17KT 17/00 A3008 RMK A01 T01740003  RH  031%=      5-min Rain = 0
KTH1 242104Z 36016KT 18/00 A3008 RMK A01 T01750001  RH  031%=      5-min Rain = 0
KTH1 242105Z 02013G19KT 17/M00 A3008 RMK A01 T01741003  RH  030%=      5-min Rain = 0
KTH1 242106Z 01010KT 17/M00 A3008 RMK A01 T01731001  RH  031%=      5-min Rain = 0
KTH1 242107Z 01010KT 17/00 A3008 RMK A01 T01740000  RH  031%=      5-min Rain = 0
KTH1 242108Z 35010KT 18/00 A3008 RMK A01 T017500-0  RH  031%=      5-min Rain = 0
KTH1 242109Z 36010KT 17/00 A3008 RMK A01 T01740001  RH  031%=      5-min Rain = 0
KTH1 242110Z 35007KT 17/00 A3008 RMK A01 T01740003  RH  031%=      5-min Rain = 0
KTH1 242111Z 01008KT 18/01 A3008 RMK A01 T01760005  RH  031%=      5-min Rain = 0
KTH1 242112Z 35011KT 18/00 A3008 RMK A01 T01790004  RH  031%=      5-min Rain = 0
KTH1 242113Z 35009KT 18/00 A3008 RMK A01 T01790003  RH  030%=      5-min Rain = 0
KTH1 242114Z 36014G19KT 18/00 A3008 RMK A01 T01790003  RH  031%=      5-min Rain = 0
KTH1 242115Z 01013KT 18/M00 A3008 RMK A01 T01761002  RH  030%=      5-min Rain = 0
KTH1 242116Z 36013KT 17/00 A3008 RMK A01 T01740001  RH  031%=      5-min Rain = 0
KTH1 242117Z 01011G16KT 17/M00 A3008 RMK A01 T01741002  RH  030%=      5-min Rain = 0
KTH1 242118Z 01006G12KT 17/M00 A3008 RMK A01 T01741001  RH  031%=      5-min Rain = 0
KTH1 242119Z 00012KT 18/00 A3008 RMK A01 T01760000  RH  030%=      5-min Rain = 0
KTH1 242120Z 35010G15KT 18/M00 A3008 RMK A01 T01751002  RH  030%=      5-min Rain = 0
KTH1 242121Z 36010G15KT 17/00 A3008 RMK A01 T01740001  RH  031%=      5-min Rain = 0
KTH1 242122Z 00006KT 18/00 A3008 RMK A01 T01750004  RH  031%=      5-min Rain = 0
KTH1 242123Z 35011KT 18/00 A3008 RMK A01 T01770004  RH  031%=      5-min Rain = 0
KTH1 242124Z 01012G20KT 18/00 A3008 RMK A01 T017700-0  RH  030%=      5-min Rain = 0
KTH1 242125Z 01012G17KT 18/M00 A3008 RMK A01 T01771001  RH  030%=      5-min Rain = 0
KTH1 242126Z 02013G22KT 18/M00 A3008 RMK A01 T01771002  RH  030%=      5-min Rain = 0
KTH1 242127Z 03014KT 18/M00 A3008 RMK A01 T01761003  RH  030%=      5-min Rain = 0
KTH1 242128Z 04010KT 17/M00 A3008 RMK A01 T01741002  RH  030%=      5-min Rain = 0
KTH1 242129Z 04009KT 18/00 A3008 RMK A01 T01750001  RH  031%=      5-min Rain = 0
KTH1 242130Z 04008KT 18/00 A3008 RMK A01 T01760002  RH  031%=      5-min Rain = 0
KTH1 242131Z 02006G11KT 18/00 A3008 RMK A01 T01780001  RH  030%=      5-min Rain = 0
KTH1 242132Z 01010KT 18/00 A3008 RMK A01 T01800002  RH  030%=      5-min Rain = 0
KTH1 242133Z 00012KT 18/M00 A3008 RMK A01 T01801002  RH  029%=      5-min Rain = 0
KTH1 242134Z 35009G15KT 18/M00 A3008 RMK A01 T01771004  RH  029%=      5-min Rain = 0
KTH1 242135Z 01012G19KT 18/M00 A3008 RMK A01 T01761001  RH  030%=      5-min Rain = 0
KTH1 242136Z 00013G19KT 18/M00 A3008 RMK A01 T01751003  RH  030%=      5-min Rain = 0
KTH1 242137Z 01014KT 17/M00 A3008 RMK A01 T01741002  RH  030%=      5-min Rain = 0
KTH1 242138Z 01015G21KT 17/M01 A3008 RMK A01 T01731005  RH  030%=      5-min Rain = 0
KTH1 242139Z 03011KT 17/M01 A3008 RMK A01 T01711007  RH  030%=      5-min Rain = 0
KTH1 242140Z 04009KT 17/M00 A3008 RMK A01 T01711003  RH  031%=      5-min Rain = 0
KTH1 242141Z 03010KT 17/M00 A3008 RMK A01 T01721002  RH  031%=      5-min Rain = 0
KTH1 242142Z 01009KT 17/M00 A3008 RMK A01 T01731004  RH  030%=      5-min Rain = 0
KTH1 242143Z 02007KT 17/M00 A3008 RMK A01 T01731004  RH  030%=      5-min Rain = 0
KTH1 242144Z 05009KT 17/00 A3008 RMK A01 T01740002  RH  031%=      5-min Rain = 0
KTH1 242145Z 02013G19KT 18/00 A3008 RMK A01 T01770001  RH  030%=      5-min Rain = 0
KTH1 242146Z 03014KT 18/M00 A3008 RMK A01 T01771001  RH  030%=      5-min Rain = 0
KTH1 242147Z 04013KT 18/M00 A3008 RMK A01 T01771003  RH  030%=      5-min Rain = 0
KTH1 242148Z 04009KT 18/M00 A3008 RMK A01 T01761001  RH  030%=      5-min Rain = 0
KTH1 242149Z 00008KT 18/00 A3008 RMK A01 T017700-0  RH  030%=      5-min Rain = 0
KTH1 242150Z 01013KT 18/M00 A3008 RMK A01 T01771004  RH  029%=      5-min Rain = 0
KTH1 242151Z 01009KT 18/M01 A3008 RMK A01 T01751005  RH  030%=      5-min Rain = 0
KTH1 242152Z 02008G14KT 17/M00 A3008 RMK A01 T01741004  RH  030%=      5-min Rain = 0
KTH1 242153Z 03006KT 18/00 A3008 RMK A01 T01750001  RH  031%=      5-min Rain = 0
KTH1 242154Z 02009KT 18/00 A3008 RMK A01 T017800-0  RH  030%=      5-min Rain = 0
KTH1 242155Z 05013KT 18/M00 A3008 RMK A01 T01791001  RH  030%=      5-min Rain = 0
KTH1 242156Z 04012G17KT 18/M00 A3008 RMK A01 T01781001  RH  030%=      5-min Rain = 0
KTH1 242157Z 03014KT 18/M00 A3008 RMK A01 T01781001  RH  030%=      5-min Rain = 0
KTH1 242158Z 02009KT 18/M01 A3008 RMK A01 T01771006  RH  029%=      5-min Rain = 0
KTH1 242159Z 02013G18KT 18/M00 A3008 RMK A01 T01761003  RH  030%=      5-min Rain = 0
KTH1 242200Z 03008KT 18/M01 A3008 RMK A01 T01761005  RH  029%=      5-min Rain = 0
KTH1 242201Z 02014G19KT 18/M00 A3008 RMK A01 T01761003  RH  030%=      5-min Rain = 0
KTH1 242202Z 02014G19KT 18/M01 A3008 RMK A01 T01771005  RH  029%=      5-min Rain = 0
KTH1 242203Z 03013KT 18/M01 A3008 RMK A01 T01771007  RH  029%=      5-min Rain = 0
KTH1 242204Z 02009KT 18/M01 A3008 RMK A01 T01751007  RH  029%=      5-min Rain = 0
KTH1 242205Z 04009KT 17/M01 A3008 RMK A01 T01741005  RH  030%=      5-min Rain = 0
KTH1 242206Z 05010KT 18/M00 A3008 RMK A01 T01751002  RH  030%=      5-min Rain = 0
KTH1 242207Z 05008G13KT 18/00 A3008 RMK A01 T01770003  RH  031%=      5-min Rain = 0
KTH1 242208Z 04011KT 18/00 A3008 RMK A01 T01790000  RH  030%=      5-min Rain = 0
KTH1 242209Z 02012KT 18/M01 A3008 RMK A01 T01771006  RH  029%=      5-min Rain = 0
KTH1 242210Z 03009G15KT 18/M01 A3007 RMK A01 T01751006  RH  029%=      5-min Rain = 0
KTH1 242211Z 04014G19KT 18/M00 A3007 RMK A01 T01751003  RH  030%=      5-min Rain = 0
KTH1 242212Z 03013KT 18/M01 A3008 RMK A01 T01751005  RH  029%=      5-min Rain = 0
KTH1 242213Z 03011KT 17/M01 A3007 RMK A01 T01731005  RH  030%=      5-min Rain = 0
KTH1 242214Z 04009G16KT 17/M00 A3008 RMK A01 T01741002  RH  030%=      5-min Rain = 0
KTH1 242215Z 04012KT 18/M00 A3008 RMK A01 T01751003  RH  030%=      5-min Rain = 0
KTH1 242216Z 05011KT 18/M00 A3007 RMK A01 T01751001  RH  030%=      5-min Rain = 0
KTH1 242217Z 03009KT 18/M00 A3008 RMK A01 T01751001  RH  030%=      5-min Rain = 0
KTH1 242218Z 02007KT 18/M00 A3008 RMK A01 T01761001  RH  030%=      5-min Rain = 0
KTH1 242219Z 04005KT 18/00 A3007 RMK A01 T01770001  RH  030%=      5-min Rain = 0
KTH1 242220Z 03008KT 18/00 A3007 RMK A01 T01790004  RH  031%=      5-min Rain = 0
KTH1 242221Z 02007G12KT 18/00 A3007 RMK A01 T01800002  RH  030%=      5-min Rain = 0
KTH1 242222Z 01011KT 18/00 A3007 RMK A01 T01810001  RH  030%=      5-min Rain = 0
KTH1 242223Z 03010KT 18/M00 A3007 RMK A01 T01801002  RH  029%=      5-min Rain = 0
KTH1 242224Z 05013KT 18/M00 A3007 RMK A01 T01781001  RH  030%=      5-min Rain = 0
KTH1 242225Z 05010KT 18/M00 A3007 RMK A01 T01761001  RH  030%=      5-min Rain = 0
KTH1 242226Z 05011KT 18/00 A3007 RMK A01 T017600-0  RH  030%=      5-min Rain = 0
KTH1 242227Z 01008KT 18/M00 A3007 RMK A01 T01751002  RH  030%=      5-min Rain = 0
KTH1 242228Z 03011G16KT 18/M00 A3007 RMK A01 T01751003  RH  030%=      5-min Rain = 0
KTH1 242229Z 02008KT 18/M00 A3007 RMK A01 T01751002  RH  030%=      5-min Rain = 0
KTH1 242230Z 02010KT 18/M00 A3008 RMK A01 T01751002  RH  030%=      5-min Rain = 0
KTH1 242231Z 01011KT 18/M00 A3007 RMK A01 T01751003  RH  030%=      5-min Rain = 0
KTH1 242232Z 01009KT 18/M00 A3007 RMK A01 T01751002  RH  030%=      5-min Rain = 0
KTH1 242233Z 02008G13KT 17/M00 A3007 RMK A01 T01741002  RH  030%=      5-min Rain = 0
KTH1 242234Z 02013KT 17/M00 A3007 RMK A01 T01741002  RH  030%=      5-min Rain = 0
KTH1 242235Z 03011KT 17/M00 A3007 RMK A01 T01741003  RH  030%=      5-min Rain = 0
KTH1 242236Z 03010KT 17/M00 A3007 RMK A01 T01741004  RH  030%=      5-min Rain = 0
KTH1 242237Z 03009G15KT 17/M00 A3007 RMK A01 T01731001  RH  031%=      5-min Rain = 0
KTH1 242238Z 02011KT 17/M00 A3007 RMK A01 T01741002  RH  030%=      5-min Rain = 0
KTH1 242239Z 01010KT 17/M00 A3007 RMK A01 T01741002  RH  030%=      5-min Rain = 0
KTH1 242240Z 02014KT 17/M00 A3007 RMK A01 T01741003  RH  030%=      5-min Rain = 0
KTH1 242241Z 03010G15KT 17/M00 A3007 RMK A01 T01731001  RH  031%=      5-min Rain = 0
KTH1 242242Z 05010KT 17/00 A3007 RMK A01 T01740002  RH  031%=      5-min Rain = 0
KTH1 242243Z 04012KT 18/00 A3007 RMK A01 T01750000  RH  031%=      5-min Rain = 0
KTH1 242244Z 02009KT 18/00 A3007 RMK A01 T01750001  RH  031%=      5-min Rain = 0
KTH1 242245Z 02010KT 18/M00 A3007 RMK A01 T01751001  RH  030%=      5-min Rain = 0
KTH1 242246Z 03008KT 17/M00 A3007 RMK A01 T01741002  RH  030%=      5-min Rain = 0
KTH1 242247Z 03009KT 17/M00 A3007 RMK A01 T01741002  RH  030%=      5-min Rain = 0
KTH1 242248Z 03011KT 17/M00 A3007 RMK A01 T01741002  RH  030%=      5-min Rain = 0
KTH1 242249Z 05009KT 17/00 A3007 RMK A01 T01740001  RH  031%=      5-min Rain = 0
KTH1 242250Z 05007G12KT 18/00 A3007 RMK A01 T01750004  RH  031%=      5-min Rain = 0
KTH1 242251Z 05009KT 18/00 A3007 RMK A01 T01760003  RH  031%=      5-min Rain = 0
KTH1 242252Z 06009KT 18/00 A3007 RMK A01 T01760002  RH  031%=      5-min Rain = 0
KTH1 242253Z 06010KT 18/00 A3007 RMK A01 T01750003  RH  031%=      5-min Rain = 0
KTH1 242254Z 04008KT 18/00 A3007 RMK A01 T01750002  RH  031%=      5-min Rain = 0
KTH1 242255Z 02014KT 18/00 A3007 RMK A01 T01750000  RH  031%=      5-min Rain = 0
KTH1 242256Z 02009KT 17/M00 A3007 RMK A01 T01741002  RH  030%=      5-min Rain = 0
KTH1 242257Z 01010KT 17/M00 A3007 RMK A01 T01731002  RH  031%=      5-min Rain = 0
KTH1 242258Z 01007KT 17/00 A3007 RMK A01 T017300-0  RH  031%=      5-min Rain = 0
KTH1 242259Z 01007KT 17/00 A3007 RMK A01 T01730001  RH  031%=      5-min Rain = 0
KTH1 242300Z 03010KT 17/00 A3007 RMK A01 T01740001  RH  031%=      5-min Rain = 0
KTH1 242301Z 03009KT 17/00 A3008 RMK A01 T01740001  RH  031%=      5-min Rain = 0
KTH1 242302Z 03011KT 17/00 A3008 RMK A01 T01740003  RH  031%=      5-min Rain = 0
KTH1 242303Z 03010KT 17/00 A3008 RMK A01 T01740000  RH  031%=      5-min Rain = 0
KTH1 242304Z 03010KT 17/00 A3008 RMK A01 T01730000  RH  031%=      5-min Rain = 0
KTH1 242305Z 03010KT 17/00 A3008 RMK A01 T017200-0  RH  031%=      5-min Rain = 0
KTH1 242306Z 03009G14KT 17/00 A3008 RMK A01 T017100-0  RH  031%=      5-min Rain = 0
KTH1 242307Z 02012KT 17/00 A3008 RMK A01 T01720001  RH  032%=      5-min Rain = 0
KTH1 242308Z 01011KT 17/M00 A3008 RMK A01 T01711001  RH  031%=      5-min Rain = 0
KTH1 242309Z 01008KT 17/00 A3008 RMK A01 T017100-0  RH  031%=      5-min Rain = 0
KTH1 242310Z 03009KT 17/00 A3008 RMK A01 T01710001  RH  032%=      5-min Rain = 0
KTH1 242311Z 03011KT 17/00 A3008 RMK A01 T01710001  RH  031%=      5-min Rain = 0
KTH1 242312Z 04009KT 17/00 A3008 RMK A01 T01710000  RH  031%=      5-min Rain = 0
KTH1 242313Z 03010KT 17/00 A3008 RMK A01 T01710000  RH  031%=      5-min Rain = 0
KTH1 242314Z 02008KT 17/M00 A3008 RMK A01 T01711002  RH  031%=      5-min Rain = 0
KTH1 242315Z 03010KT 17/M00 A3008 RMK A01 T01711001  RH  031%=      5-min Rain = 0
KTH1 242316Z 02010G15KT 17/M00 A3008 RMK A01 T01711001  RH  031%=      5-min Rain = 0
KTH1 242317Z 02011KT 17/M00 A3008 RMK A01 T01701001  RH  031%=      5-min Rain = 0
KTH1 242318Z 02011KT 17/M00 A3008 RMK A01 T01691001  RH  031%=      5-min Rain = 0
KTH1 242319Z 03009KT 17/00 A3008 RMK A01 T01690000  RH  032%=      5-min Rain = 0
KTH1 242320Z 02011KT 17/M00 A3008 RMK A01 T01691001  RH  032%=      5-min Rain = 0
KTH1 242321Z 02010KT 17/M00 A3008 RMK A01 T01681002  RH  031%=      5-min Rain = 0
KTH1 242322Z 02010KT 17/M00 A3008 RMK A01 T01681002  RH  031%=      5-min Rain = 0
KTH1 242323Z 02008KT 17/M00 A3008 RMK A01 T01681002  RH  032%=      5-min Rain = 0
KTH1 242324Z 02010G15KT 17/M00 A3008 RMK A01 T01681002  RH  032%=      5-min Rain = 0
KTH1 242325Z 03009KT 17/M00 A3008 RMK A01 T01671003  RH  031%=      5-min Rain = 0
KTH1 242326Z 02007KT 17/M00 A3008 RMK A01 T01671003  RH  032%=      5-min Rain = 0
KTH1 242327Z 02008KT 17/M00 A3008 RMK A01 T01671001  RH  032%=      5-min Rain = 0
KTH1 242328Z 03007G12KT 17/M00 A3009 RMK A01 T01671001  RH  032%=      5-min Rain = 0
KTH1 242329Z 04011KT 17/M00 A3009 RMK A01 T01681001  RH  032%=      5-min Rain = 0
KTH1 242330Z 04010KT 17/M00 A3008 RMK A01 T01681001  RH  032%=      5-min Rain = 0
KTH1 242331Z 05012KT 17/M00 A3009 RMK A01 T01671002  RH  032%=      5-min Rain = 0
KTH1 242332Z 04009KT 17/M00 A3009 RMK A01 T01661001  RH  032%=      5-min Rain = 0
KTH1 242333Z 04010KT 17/M00 A3009 RMK A01 T01651001  RH  032%=      5-min Rain = 0
KTH1 242334Z 03009KT 17/M00 A3008 RMK A01 T01651002  RH  032%=      5-min Rain = 0
KTH1 242335Z 02010KT 17/M00 A3008 RMK A01 T01661003  RH  032%=      5-min Rain = 0
KTH1 242336Z 04008KT 17/M00 A3008 RMK A01 T01651004  RH  032%=      5-min Rain = 0
KTH1 242337Z 04008KT 17/M00 A3008 RMK A01 T01651002  RH  032%=      5-min Rain = 0
KTH1 242338Z 05010G15KT 17/M00 A3008 RMK A01 T01651001  RH  032%=      5-min Rain = 0
KTH1 242339Z 03010KT 17/M00 A3008 RMK A01 T01651002  RH  032%=      5-min Rain = 0
KTH1 242340Z 04011G17KT 16/M00 A3008 RMK A01 T01641003  RH  032%=      5-min Rain = 0
KTH1 242341Z 03010G15KT 16/M00 A3008 RMK A01 T01631003  RH  032%=      5-min Rain = 0
KTH1 242342Z 04008G14KT 16/M00 A3008 RMK A01 T01631003  RH  032%=      5-min Rain = 0
KTH1 242343Z 05010KT 16/00 A3008 RMK A01 T01630000  RH  033%=      5-min Rain = 0
KTH1 242344Z 06011KT 16/M00 A3009 RMK A01 T01621001  RH  033%=      5-min Rain = 0
KTH1 242345Z 05010KT 16/00 A3008 RMK A01 T016200-0  RH  033%=      5-min Rain = 0
KTH1 242346Z 04009KT 16/M00 A3008 RMK A01 T01601002  RH  033%=      5-min Rain = 0
KTH1 242347Z 04009KT 16/M00 A3009 RMK A01 T01601002  RH  033%=      5-min Rain = 0
KTH1 242348Z 04009KT 16/M00 A3009 RMK A01 T01601003  RH  033%=      5-min Rain = 0
KTH1 242349Z 04010KT 16/M00 A3009 RMK A01 T01601003  RH  033%=      5-min Rain = 0
KTH1 242350Z 03008KT 16/M01 A3009 RMK A01 T01601005  RH  033%=      5-min Rain = 0
KTH1 242351Z 04009G14KT 16/M01 A3009 RMK A01 T01591006  RH  032%=      5-min Rain = 0
KTH1 242352Z 04010KT 16/M01 A3009 RMK A01 T01591005  RH  033%=      5-min Rain = 0
KTH1 242353Z 04011KT 16/M01 A3009 RMK A01 T01591005  RH  033%=      5-min Rain = 0
KTH1 242354Z 04010KT 16/M01 A3009 RMK A01 T01581006  RH  033%=      5-min Rain = 0
KTH1 242355Z 04007KT 16/M01 A3009 RMK A01 T01581005  RH  033%=      5-min Rain = 0
KTH1 242356Z 05006KT 16/M00 A3009 RMK A01 T01571004  RH  033%=      5-min Rain = 0
KTH1 242357Z 04008KT 16/M00 A3009 RMK A01 T01571002  RH  034%=      5-min Rain = 0
KTH1 242358Z 05008KT 16/M00 A3009 RMK A01 T01571003  RH  034%=      5-min Rain = 0
KTH1 242359Z 04008KT 16/M00 A3009 RMK A01 T01561003  RH  034%=      5-min Rain = 0
KTH1 250000Z 05008KT 16/M00 A3009 RMK A01 T01561003  RH  034%=      5-min Rain = 0
KTH1 250001Z 04006KT 16/M00 A3009 RMK A01 T01551002  RH  034%=      5-min Rain = 0
KTH1 250002Z 04005G11KT 16/M00 A301 RMK A01 T01551001  RH  034%=      5-min Rain = 0
KTH1 250003Z 04010KT 15/M00 A301 RMK A01 T01541002  RH  034%=      5-min Rain = 0
KTH1 250004Z 04006KT 16/M00 A301 RMK A01 T01551001  RH  034%=      5-min Rain = 0
KTH1 250005Z 04006KT 15/00 A301 RMK A01 T015400-0  RH  035%=      5-min Rain = 0
KTH1 250006Z 04007KT 15/M00 A301 RMK A01 T01531001  RH  035%=      5-min Rain = 0
KTH1 250007Z 04007KT 15/M00 A301 RMK A01 T01531001  RH  035%=      5-min Rain = 0
KTH1 250008Z 03006KT 15/M00 A301 RMK A01 T01531001  RH  035%=      5-min Rain = 0
KTH1 250009Z 04007KT 15/M00 A301 RMK A01 T01521001  RH  035%=      5-min Rain = 0
KTH1 250010Z 04007KT 15/M00 A301 RMK A01 T01521002  RH  035%=      5-min Rain = 0
KTH1 250011Z 03006KT 15/M00 A301 RMK A01 T01521002  RH  035%=      5-min Rain = 0
KTH1 250012Z 04005KT 15/M00 A301 RMK A01 T01511002  RH  035%=      5-min Rain = 0
KTH1 250013Z 04007KT 15/M00 A301 RMK A01 T01501001  RH  035%=      5-min Rain = 0
KTH1 250014Z 04006KT 15/M00 A301 RMK A01 T01501002  RH  035%=      5-min Rain = 0
KTH1 250015Z 04007KT 15/M00 A301 RMK A01 T01491002  RH  036%=      5-min Rain = 0
KTH1 250016Z 04007KT 15/M00 A301 RMK A01 T01481002  RH  036%=      5-min Rain = 0
KTH1 250017Z 04008KT 15/M00 A301 RMK A01 T01471002  RH  036%=      5-min Rain = 0
KTH1 250018Z 04006KT 15/M00 A301 RMK A01 T01471001  RH  036%=      5-min Rain = 0
KTH1 250019Z 04008KT 15/M00 A301 RMK A01 T01461001  RH  037%=      5-min Rain = 0
KTH1 250020Z 04007KT 15/M00 A301 RMK A01 T01451001  RH  037%=      5-min Rain = 0
KTH1 250021Z 04007KT 14/M00 A301 RMK A01 T01441001  RH  037%=      5-min Rain = 0
KTH1 250022Z 04005KT 14/M00 A301 RMK A01 T01441001  RH  037%=      5-min Rain = 0
KTH1 250023Z 04006KT 14/M00 A3011 RMK A01 T01431001  RH  037%=      5-min Rain = 0
KTH1 250024Z 03008KT 14/M00 A3011 RMK A01 T01421001  RH  037%=      5-min Rain = 0
KTH1 250025Z 03005KT 14/M00 A3011 RMK A01 T01421002  RH  037%=      5-min Rain = 0
KTH1 250026Z 03006KT 14/M00 A3011 RMK A01 T01421002  RH  037%=      5-min Rain = 0
KTH1 250027Z 04008KT 14/M00 A301 RMK A01 T01411002  RH  037%=      5-min Rain = 0
KTH1 250028Z 04007KT 14/M00 A301 RMK A01 T01411003  RH  037%=      5-min Rain = 0
KTH1 250029Z 04006KT 14/M00 A3011 RMK A01 T01411003  RH  037%=      5-min Rain = 0
KTH1 250030Z 04007KT 14/M00 A3011 RMK A01 T01401002  RH  038%=      5-min Rain = 0
KTH1 250031Z 04006KT 14/M00 A3011 RMK A01 T01401003  RH  038%=      5-min Rain = 0
KTH1 250032Z 04006KT 14/M00 A3011 RMK A01 T01401003  RH  037%=      5-min Rain = 0
KTH1 250033Z 04006KT 14/M00 A3011 RMK A01 T01391003  RH  038%=      5-min Rain = 0
KTH1 250034Z 04005KT 14/M00 A3011 RMK A01 T01381003  RH  038%=      5-min Rain = 0
KTH1 250035Z 04006KT 14/M00 A3011 RMK A01 T01371003  RH  038%=      5-min Rain = 0
KTH1 250036Z 04006KT 14/M00 A3011 RMK A01 T01371003  RH  038%=      5-min Rain = 0
KTH1 250037Z 04005KT 14/M00 A3011 RMK A01 T01361003  RH  039%=      5-min Rain = 0
KTH1 250038Z 04006KT 14/M00 A3011 RMK A01 T01351002  RH  039%=      5-min Rain = 0
KTH1 250039Z 04005KT 13/M00 A3011 RMK A01 T01341003  RH  039%=      5-min Rain = 0
KTH1 250040Z 04006KT 13/M00 A3011 RMK A01 T01331003  RH  039%=      5-min Rain = 0
KTH1 250041Z 04005KT 13/M00 A3011 RMK A01 T01331003  RH  039%=      5-min Rain = 0
KTH1 250042Z 04006KT 13/M00 A3011 RMK A01 T01321004  RH  039%=      5-min Rain = 0
KTH1 250043Z 03005KT 13/M00 A3011 RMK A01 T01321004  RH  039%=      5-min Rain = 0
KTH1 250044Z 04005KT 13/M00 A3011 RMK A01 T01321004  RH  039%=      5-min Rain = 0
KTH1 250045Z 04005KT 13/M00 A3011 RMK A01 T01321004  RH  039%=      5-min Rain = 0
KTH1 250046Z 04006KT 13/M00 A3011 RMK A01 T01311004  RH  039%=      5-min Rain = 0
KTH1 250047Z 04005KT 13/M00 A3011 RMK A01 T01301004  RH  040%=      5-min Rain = 0
KTH1 250048Z 04005KT 13/M00 A3011 RMK A01 T01301004  RH  040%=      5-min Rain = 0
KTH1 250049Z 04005KT 13/M01 A3011 RMK A01 T01291005  RH  040%=      5-min Rain = 0
KTH1 250050Z 04005KT 13/M01 A3011 RMK A01 T01291005  RH  040%=      5-min Rain = 0
KTH1 250051Z 03005KT 13/M01 A3011 RMK A01 T01291005  RH  040%=      5-min Rain = 0
KTH1 250052Z 03005KT 13/M01 A3011 RMK A01 T01281005  RH  040%=      5-min Rain = 0
KTH1 250053Z 03005KT 13/M01 A3012 RMK A01 T01281005  RH  040%=      5-min Rain = 0
KTH1 250054Z 04004KT 13/M01 A3012 RMK A01 T01271005  RH  040%=      5-min Rain = 0
KTH1 250055Z 03005KT 13/M01 A3012 RMK A01 T01261005  RH  040%=      5-min Rain = 0
KTH1 250056Z 04005KT 13/M01 A3012 RMK A01 T01261005  RH  040%=      5-min Rain = 0
KTH1 250057Z 04004KT 13/M01 A3012 RMK A01 T01251006  RH  040%=      5-min Rain = 0
KTH1 250058Z 03006KT 13/M01 A3012 RMK A01 T01251006  RH  040%=      5-min Rain = 0
KTH1 250059Z 03004KT 13/M01 A3012 RMK A01 T01251007  RH  040%=      5-min Rain = 0
KTH1 250100Z 04005KT 13/M01 A3012 RMK A01 T01251006  RH  040%=      5-min Rain = 0
KTH1 250101Z 03005KT 13/M01 A3012 RMK A01 T01251006  RH  040%=      5-min Rain = 0
KTH1 250102Z 03005KT 13/M01 A3012 RMK A01 T01251006  RH  040%=      5-min Rain = 0
KTH1 250103Z 03005KT 12/M01 A3012 RMK A01 T01241006  RH  041%=      5-min Rain = 0
KTH1 250104Z 03006KT 12/M01 A3013 RMK A01 T01231007  RH  041%=      5-min Rain = 0
KTH1 250105Z 03005KT 12/M01 A3013 RMK A01 T01231007  RH  040%=      5-min Rain = 0
KTH1 250106Z 03005KT 12/M01 A3013 RMK A01 T01231008  RH  040%=      5-min Rain = 0
KTH1 250107Z 03005KT 12/M01 A3013 RMK A01 T01231007  RH  041%=      5-min Rain = 0
KTH1 250108Z 03005KT 12/M01 A3013 RMK A01 T01231007  RH  041%=      5-min Rain = 0
KTH1 250109Z 03004KT 12/M01 A3013 RMK A01 T01221007  RH  041%=      5-min Rain = 0
KTH1 250110Z 03005KT 12/M01 A3013 RMK A01 T01211008  RH  041%=      5-min Rain = 0
KTH1 250111Z 02005KT 12/M01 A3013 RMK A01 T01211008  RH  041%=      5-min Rain = 0
KTH1 250112Z 02005KT 12/M01 A3013 RMK A01 T01211008  RH  041%=      5-min Rain = 0
KTH1 250113Z 03005KT 12/M01 A3013 RMK A01 T01211008  RH  041%=      5-min Rain = 0
KTH1 250114Z 02005KT 12/M01 A3013 RMK A01 T01201009  RH  041%=      5-min Rain = 0
KTH1 250115Z 02005KT 12/M01 A3013 RMK A01 T01201008  RH  041%=      5-min Rain = 0
KTH1 250116Z 02004KT 12/M01 A3013 RMK A01 T01201008  RH  041%=      5-min Rain = 0
KTH1 250117Z 02005KT 12/M01 A3013 RMK A01 T01191008  RH  041%=      5-min Rain = 0
KTH1 250118Z 02005KT 12/M01 A3013 RMK A01 T01181008  RH  042%=      5-min Rain = 0
KTH1 250119Z 02005KT 12/M01 A3013 RMK A01 T01181008  RH  042%=      5-min Rain = 0
KTH1 250120Z 03005KT 12/M01 A3013 RMK A01 T01181009  RH  042%=      5-min Rain = 0
KTH1 250121Z 02005KT 12/M01 A3013 RMK A01 T01181009  RH  042%=      5-min Rain = 0
KTH1 250122Z 02005KT 12/M01 A3013 RMK A01 T01171009  RH  042%=      5-min Rain = 0
KTH1 250123Z 02006KT 12/M01 A3013 RMK A01 T01171009  RH  042%=      5-min Rain = 0
KTH1 250124Z 02006KT 12/M01 A3013 RMK A01 T01171010  RH  041%=      5-min Rain = 0
KTH1 250125Z 03007KT 12/M01 A3013 RMK A01 T01171010  RH  041%=      5-min Rain = 0
KTH1 250126Z 02006KT 12/M01 A3013 RMK A01 T01171010  RH  041%=      5-min Rain = 0
KTH1 250127Z 02005KT 12/M01 A3013 RMK A01 T01181010  RH  041%=      5-min Rain = 0
KTH1 250128Z 03005KT 12/M01 A3014 RMK A01 T01181010  RH  041%=      5-min Rain = 0
KTH1 250129Z 03006KT 12/M01 A3013 RMK A01 T01181010  RH  041%=      5-min Rain = 0
KTH1 250130Z 03007KT 12/M01 A3014 RMK A01 T01181010  RH  041%=      5-min Rain = 0
KTH1 250131Z 03007KT 12/M01 A3014 RMK A01 T01181011  RH  041%=      5-min Rain = 0
KTH1 250132Z 03007KT 12/M01 A3014 RMK A01 T01171011  RH  041%=      5-min Rain = 0
KTH1 250133Z 02006KT 12/M01 A3014 RMK A01 T01171011  RH  041%=      5-min Rain = 0
KTH1 250134Z 03006KT 12/M01 A3014 RMK A01 T01171012  RH  041%=      5-min Rain = 0
KTH1 250135Z 03005KT 12/M01 A3014 RMK A01 T01181011  RH  041%=      5-min Rain = 0
KTH1 250136Z 03006KT 12/M01 A3014 RMK A01 T01181011  RH  041%=      5-min Rain = 0
KTH1 250137Z 03006KT 12/M01 A3014 RMK A01 T01171011  RH  041%=      5-min Rain = 0
KTH1 250138Z 03007KT 12/M01 A3014 RMK A01 T01161011  RH  041%=      5-min Rain = 0
KTH1 250139Z 02007KT 12/M01 A3014 RMK A01 T01161011  RH  041%=      5-min Rain = 0
KTH1 250140Z 03006KT 12/M01 A3014 RMK A01 T01161011  RH  041%=      5-min Rain = 0
KTH1 250141Z 03007KT 12/M01 A3014 RMK A01 T01161011  RH  041%=      5-min Rain = 0
KTH1 250142Z 03008KT 12/M01 A3014 RMK A01 T01151012  RH  041%=      5-min Rain = 0
KTH1 250143Z 03006KT 12/M01 A3014 RMK A01 T01151012  RH  041%=      5-min Rain = 0
KTH1 250144Z 03006KT 12/M01 A3014 RMK A01 T01161012  RH  041%=      5-min Rain = 0
KTH1 250145Z 03007KT 12/M01 A3014 RMK A01 T01161012  RH  041%=      5-min Rain = 0
KTH1 250146Z 03006KT 12/M01 A3014 RMK A01 T01161012  RH  041%=      5-min Rain = 0
KTH1 250147Z 03007KT 12/M01 A3014 RMK A01 T01151012  RH  041%=      5-min Rain = 0
KTH1 250148Z 03006KT 12/M01 A3014 RMK A01 T01151012  RH  041%=      5-min Rain = 0
KTH1 250149Z 03006KT 11/M01 A3015 RMK A01 T01141011  RH  042%=      5-min Rain = 0
KTH1 250150Z 02006KT 11/M01 A3015 RMK A01 T01131012  RH  042%=      5-min Rain = 0
KTH1 250151Z 03006KT 11/M01 A3015 RMK A01 T01131012  RH  042%=      5-min Rain = 0
KTH1 250152Z 03006KT 11/M01 A3015 RMK A01 T01121012  RH  042%=      5-min Rain = 0
KTH1 250153Z 03007KT 11/M01 A3015 RMK A01 T01121012  RH  042%=      5-min Rain = 0
KTH1 250154Z 03006KT 11/M01 A3015 RMK A01 T01111012  RH  042%=      5-min Rain = 0
KTH1 250155Z 03007KT 11/M01 A3015 RMK A01 T01111012  RH  042%=      5-min Rain = 0
KTH1 250156Z 03006KT 11/M01 A3015 RMK A01 T01111012  RH  042%=      5-min Rain = 0
KTH1 250157Z 03006KT 11/M01 A3015 RMK A01 T01111012  RH  042%=      5-min Rain = 0
KTH1 250158Z 03007KT 11/M01 A3015 RMK A01 T01111012  RH  042%=      5-min Rain = 0
KTH1 250159Z 03006KT 11/M01 A3015 RMK A01 T01111012  RH  042%=      5-min Rain = 0
KTH1 250200Z 03006KT 11/M01 A3015 RMK A01 T01101012  RH  042%=      5-min Rain = 0
KTH1 250201Z 03006KT 11/M01 A3015 RMK A01 T01101012  RH  043%=      5-min Rain = 0
KTH1 250202Z 03006KT 11/M01 A3015 RMK A01 T01101012  RH  043%=      5-min Rain = 0
KTH1 250203Z 03006KT 11/M01 A3015 RMK A01 T01091012  RH  043%=      5-min Rain = 0
KTH1 250204Z 03006KT 11/M01 A3015 RMK A01 T01091012  RH  043%=      5-min Rain = 0
KTH1 250205Z 03006KT 11/M01 A3015 RMK A01 T01091012  RH  043%=      5-min Rain = 0
KTH1 250206Z 03006KT 11/M01 A3015 RMK A01 T01091012  RH  043%=      5-min Rain = 0
KTH1 250207Z 03007KT 11/M01 A3015 RMK A01 T01091012  RH  043%=      5-min Rain = 0
KTH1 250208Z 02006KT 11/M01 A3015 RMK A01 T01091012  RH  043%=      5-min Rain = 0
KTH1 250209Z 02007KT 11/M01 A3015 RMK A01 T01081012  RH  043%=      5-min Rain = 0
KTH1 250210Z 02005KT 11/M01 A3015 RMK A01 T01081013  RH  043%=      5-min Rain = 0
KTH1 250211Z 02006KT 11/M01 A3016 RMK A01 T01071013  RH  043%=      5-min Rain = 0
KTH1 250212Z 02007KT 11/M01 A3016 RMK A01 T01071013  RH  043%=      5-min Rain = 0
KTH1 250213Z 02005KT 11/M01 A3016 RMK A01 T01061013  RH  043%=      5-min Rain = 0
KTH1 250214Z 02006KT 11/M01 A3016 RMK A01 T01051013  RH  044%=      5-min Rain = 0
KTH1 250215Z 03007KT 10/M01 A3016 RMK A01 T01041013  RH  044%=      5-min Rain = 0
KTH1 250216Z 02006KT 10/M01 A3016 RMK A01 T01041014  RH  044%=      5-min Rain = 0
KTH1 250217Z 03006KT 10/M01 A3016 RMK A01 T01041014  RH  044%=      5-min Rain = 0
KTH1 250218Z 02007KT 10/M01 A3016 RMK A01 T01041014  RH  044%=      5-min Rain = 0
KTH1 250219Z 03007KT 10/M01 A3016 RMK A01 T01041014  RH  044%=      5-min Rain = 0
KTH1 250220Z 03007KT 10/M01 A3016 RMK A01 T01041014  RH  044%=      5-min Rain = 0
KTH1 250221Z 02007KT 10/M01 A3016 RMK A01 T01041014  RH  044%=      5-min Rain = 0
KTH1 250222Z 03006KT 10/M01 A3016 RMK A01 T01041014  RH  044%=      5-min Rain = 0
KTH1 250223Z 02007KT 10/M01 A3016 RMK A01 T01041013  RH  044%=      5-min Rain = 0
KTH1 250224Z 03007KT 10/M01 A3016 RMK A01 T01041013  RH  044%=      5-min Rain = 0
KTH1 250225Z 02007KT 10/M01 A3016 RMK A01 T01031014  RH  044%=      5-min Rain = 0
KTH1 250226Z 03006KT 10/M01 A3016 RMK A01 T01041014  RH  044%=      5-min Rain = 0
KTH1 250227Z 03008KT 10/M01 A3016 RMK A01 T01031014  RH  044%=      5-min Rain = 0
KTH1 250228Z 03007KT 10/M01 A3016 RMK A01 T01041014  RH  044%=      5-min Rain = 0
KTH1 250229Z 03007KT 10/M01 A3016 RMK A01 T01041014  RH  044%=      5-min Rain = 0
KTH1 250230Z 02008KT 11/M02 A3016 RMK A01 T01051015  RH  043%=      5-min Rain = 0
KTH1 250231Z 03008KT 11/M01 A3016 RMK A01 T01051014  RH  043%=      5-min Rain = 0
KTH1 250232Z 03006KT 11/M02 A3016 RMK A01 T01051015  RH  043%=      5-min Rain = 0
KTH1 250233Z 03008KT 11/M02 A3016 RMK A01 T01051015  RH  043%=      5-min Rain = 0
KTH1 250234Z 03007KT 11/M02 A3016 RMK A01 T01051015  RH  043%=      5-min Rain = 0
KTH1 250235Z 03008KT 11/M02 A3016 RMK A01 T01051015  RH  043%=      5-min Rain = 0
KTH1 250236Z 02008KT 11/M02 A3016 RMK A01 T01051015  RH  043%=      5-min Rain = 0
KTH1 250237Z 03006KT 11/M01 A3016 RMK A01 T01051014  RH  043%=      5-min Rain = 0
KTH1 250238Z 02006KT 10/M01 A3016 RMK A01 T01041014  RH  044%=      5-min Rain = 0
KTH1 250239Z 03007KT 10/M01 A3016 RMK A01 T01041014  RH  044%=      5-min Rain = 0
KTH1 250240Z 03006KT 10/M01 A3016 RMK A01 T01031014  RH  044%=      5-min Rain = 0
KTH1 250241Z 03006KT 10/M01 A3016 RMK A01 T01021014  RH  044%=      5-min Rain = 0
KTH1 250242Z 02007KT 10/M01 A3016 RMK A01 T01011014  RH  045%=      5-min Rain = 0
KTH1 250243Z 02007KT 10/M01 A3016 RMK A01 T01011014  RH  045%=      5-min Rain = 0
KTH1 250244Z 02006KT 10/M01 A3016 RMK A01 T01011014  RH  045%=      5-min Rain = 0
KTH1 250245Z 03006KT 10/M01 A3016 RMK A01 T01001014  RH  045%=      5-min Rain = 0
KTH1 250246Z 02007KT 10/M01 A3017 RMK A01 T01001014  RH  045%=      5-min Rain = 0
KTH1 250247Z 02007KT 10/M01 A3017 RMK A01 T01001014  RH  045%=      5-min Rain = 0
KTH1 250248Z 03007KT 10/M01 A3017 RMK A01 T01001014  RH  045%=      5-min Rain = 0
KTH1 250249Z 02007KT 10/M01 A3017 RMK A01 T01001014  RH  045%=      5-min Rain = 0
KTH1 250250Z 02007KT 10/M01 A3017 RMK A01 T00991014  RH  045%=      5-min Rain = 0
KTH1 250251Z 02006KT 10/M02 A3017 RMK A01 T00991015  RH  045%=      5-min Rain = 0
KTH1 250252Z 02006KT 10/M02 A3017 RMK A01 T00991015  RH  045%=      5-min Rain = 0
KTH1 250253Z 02006KT 10/M02 A3017 RMK A01 T00981015  RH  045%=      5-min Rain = 0
KTH1 250254Z 02007KT 10/M02 A3017 RMK A01 T00981015  RH  045%=      5-min Rain = 0
KTH1 250255Z 02007KT 10/M02 A3017 RMK A01 T00981015  RH  045%=      5-min Rain = 0
KTH1 250256Z 03007KT 10/M02 A3017 RMK A01 T00981015  RH  045%=      5-min Rain = 0
KTH1 250257Z 02006KT 10/M02 A3017 RMK A01 T00971015  RH  045%=      5-min Rain = 0
KTH1 250258Z 02008KT 10/M02 A3018 RMK A01 T00981016  RH  045%=      5-min Rain = 0
KTH1 250259Z 02007KT 10/M02 A3018 RMK A01 T00971016  RH  045%=      5-min Rain = 0
KTH1 250300Z 03006KT 10/M02 A3018 RMK A01 T00981016  RH  045%=      5-min Rain = 0
KTH1 250301Z 03006KT 10/M02 A3018 RMK A01 T00971016  RH  045%=      5-min Rain = 0
KTH1 250302Z 02007KT 10/M02 A3018 RMK A01 T00971016  RH  045%=      5-min Rain = 0
KTH1 250303Z 02008KT 10/M02 A3018 RMK A01 T00971017  RH  045%=      5-min Rain = 0
KTH1 250304Z 03006KT 10/M02 A3018 RMK A01 T00981017  RH  045%=      5-min Rain = 0
KTH1 250305Z 02007KT 10/M02 A3018 RMK A01 T00981016  RH  045%=      5-min Rain = 0
KTH1 250306Z 03007KT 10/M02 A3018 RMK A01 T00981017  RH  045%=      5-min Rain = 0
KTH1 250307Z 02007KT 10/M02 A3018 RMK A01 T00971016  RH  045%=      5-min Rain = 0
KTH1 250308Z 02008KT 10/M02 A3018 RMK A01 T00971017  RH  045%=      5-min Rain = 0
KTH1 250309Z 02007KT 10/M02 A3018 RMK A01 T00971016  RH  045%=      5-min Rain = 0
KTH1 250310Z 02007KT 10/M02 A3018 RMK A01 T00961017  RH  045%=      5-min Rain = 0
KTH1 250311Z 03007KT 10/M02 A3018 RMK A01 T00961016  RH  045%=      5-min Rain = 0
KTH1 250312Z 03008KT 10/M02 A3018 RMK A01 T00961017  RH  045%=      5-min Rain = 0
KTH1 250313Z 03008G13KT 10/M02 A3018 RMK A01 T00961017  RH  045%=      5-min Rain = 0
KTH1 250314Z 03009KT 10/M02 A3018 RMK A01 T00961017  RH  045%=      5-min Rain = 0
KTH1 250315Z 03008KT 10/M02 A3018 RMK A01 T00961017  RH  045%=      5-min Rain = 0
KTH1 250316Z 03007KT 10/M02 A3019 RMK A01 T00961017  RH  045%=      5-min Rain = 0
KTH1 250317Z 04007KT 10/M02 A3019 RMK A01 T00961017  RH  045%=      5-min Rain = 0
KTH1 250318Z 03008KT 10/M02 A3018 RMK A01 T00951017  RH  045%=      5-min Rain = 0
KTH1 250319Z 03007KT 10/M02 A3018 RMK A01 T00951017  RH  045%=      5-min Rain = 0
KTH1 250320Z 04007KT 10/M02 A3019 RMK A01 T00951017  RH  046%=      5-min Rain = 0
KTH1 250321Z 04009KT 10/M02 A3018 RMK A01 T00951017  RH  046%=      5-min Rain = 0
KTH1 250322Z 03006KT 10/M02 A3018 RMK A01 T00951017  RH  046%=      5-min Rain = 0
KTH1 250323Z 04008KT 10/M02 A3018 RMK A01 T00951017  RH  046%=      5-min Rain = 0
KTH1 250324Z 03007KT 10/M02 A3019 RMK A01 T00951017  RH  046%=      5-min Rain = 0
KTH1 250325Z 03008KT 10/M02 A3019 RMK A01 T00951017  RH  046%=      5-min Rain = 0
KTH1 250326Z 04007KT 09/M02 A3019 RMK A01 T00941017  RH  046%=      5-min Rain = 0
KTH1 250327Z 03008KT 09/M02 A3019 RMK A01 T00941017  RH  046%=      5-min Rain = 0
KTH1 250328Z 03009KT 09/M02 A3019 RMK A01 T00941016  RH  046%=      5-min Rain = 0
KTH1 250329Z 04010KT 09/M02 A3019 RMK A01 T00941017  RH  046%=      5-min Rain = 0
KTH1 250330Z 03007KT 09/M02 A3019 RMK A01 T00941017  RH  046%=      5-min Rain = 0
KTH1 250331Z 04008KT 09/M02 A3019 RMK A01 T00931017  RH  046%=      5-min Rain = 0
KTH1 250332Z 04007KT 09/M02 A3019 RMK A01 T00921017  RH  046%=      5-min Rain = 0
KTH1 250333Z 03008KT 09/M02 A3019 RMK A01 T00921017  RH  046%=      5-min Rain = 0
KTH1 250334Z 03007KT 09/M02 A3019 RMK A01 T00921017  RH  047%=      5-min Rain = 0
KTH1 250335Z 03008KT 09/M02 A3019 RMK A01 T00911017  RH  047%=      5-min Rain = 0
KTH1 250336Z 03010KT 09/M02 A3019 RMK A01 T00901017  RH  047%=      5-min Rain = 0
KTH1 250337Z 03008KT 09/M02 A302 RMK A01 T00911017  RH  047%=      5-min Rain = 0
KTH1 250338Z 02007G12KT 09/M02 A302 RMK A01 T00911017  RH  047%=      5-min Rain = 0
KTH1 250339Z 03006KT 09/M02 A302 RMK A01 T00901017  RH  047%=      5-min Rain = 0
KTH1 250340Z 03008KT 09/M02 A302 RMK A01 T00901017  RH  047%=      5-min Rain = 0
KTH1 250341Z 03008KT 09/M02 A302 RMK A01 T00891017  RH  047%=      5-min Rain = 0
KTH1 250342Z 03008KT 09/M02 A302 RMK A01 T00891017  RH  047%=      5-min Rain = 0
KTH1 250343Z 03007KT 09/M02 A302 RMK A01 T00881017  RH  048%=      5-min Rain = 0
KTH1 250344Z 03007KT 09/M02 A302 RMK A01 T00881017  RH  048%=      5-min Rain = 0
KTH1 250345Z 03009KT 09/M02 A302 RMK A01 T00881017  RH  048%=      5-min Rain = 0
KTH1 250346Z 03008KT 09/M02 A302 RMK A01 T00881017  RH  048%=      5-min Rain = 0
KTH1 250347Z 03008KT 09/M02 A302 RMK A01 T00871017  RH  048%=      5-min Rain = 0
KTH1 250348Z 03006KT 09/M02 A302 RMK A01 T00871017  RH  048%=      5-min Rain = 0
KTH1 250349Z 03008KT 09/M02 A302 RMK A01 T00871017  RH  048%=      5-min Rain = 0
KTH1 250350Z 03007KT 09/M02 A302 RMK A01 T00871017  RH  048%=      5-min Rain = 0
KTH1 250351Z 03005KT 09/M02 A302 RMK A01 T00861017  RH  048%=      5-min Rain = 0
KTH1 250352Z 03006KT 09/M02 A302 RMK A01 T00851017  RH  049%=      5-min Rain = 0
KTH1 250353Z 03008KT 09/M02 A302 RMK A01 T00851017  RH  049%=      5-min Rain = 0
KTH1 250354Z 03007KT 08/M02 A302 RMK A01 T00841018  RH  049%=      5-min Rain = 0
KTH1 250355Z 03008KT 09/M02 A302 RMK A01 T00851018  RH  049%=      5-min Rain = 0
KTH1 250356Z 03007KT 09/M02 A302 RMK A01 T00851018  RH  048%=      5-min Rain = 0
KTH1 250357Z 03006KT 09/M02 A302 RMK A01 T00851018  RH  048%=      5-min Rain = 0
KTH1 250358Z 03008KT 09/M02 A302 RMK A01 T00851018  RH  049%=      5-min Rain = 0
KTH1 250359Z 03009KT 08/M02 A302 RMK A01 T00841018  RH  049%=      5-min Rain = 0
KTH1 250400Z 03008KT 08/M02 A302 RMK A01 T00841018  RH  049%=      5-min Rain = 0
KTH1 250401Z 03007KT 08/M02 A302 RMK A01 T00841019  RH  048%=      5-min Rain = 0
KTH1 250402Z 04008KT 08/M02 A302 RMK A01 T00841018  RH  048%=      5-min Rain = 0
KTH1 250403Z 03007KT 08/M02 A302 RMK A01 T00841019  RH  048%=      5-min Rain = 0
KTH1 250404Z 02007KT 08/M02 A302 RMK A01 T00841019  RH  048%=      5-min Rain = 0
KTH1 250405Z 03007KT 08/M02 A302 RMK A01 T00841019  RH  048%=      5-min Rain = 0
KTH1 250406Z 03009KT 08/M02 A3021 RMK A01 T00841019  RH  048%=      5-min Rain = 0
KTH1 250407Z 02008KT 08/M02 A3021 RMK A01 T00841020  RH  048%=      5-min Rain = 0
KTH1 250408Z 02006KT 08/M02 A3021 RMK A01 T00841020  RH  048%=      5-min Rain = 0
KTH1 250409Z 03006KT 08/M02 A3021 RMK A01 T00841019  RH  048%=      5-min Rain = 0
KTH1 250410Z 03006KT 08/M02 A3021 RMK A01 T00841020  RH  048%=      5-min Rain = 0
KTH1 250411Z 02007KT 08/M02 A3021 RMK A01 T00831020  RH  048%=      5-min Rain = 0
KTH1 250412Z 03007KT 08/M02 A3021 RMK A01 T00831020  RH  048%=      5-min Rain = 0
KTH1 250413Z 04008KT 08/M02 A3021 RMK A01 T00831020  RH  048%=      5-min Rain = 0
KTH1 250414Z 02009KT 08/M02 A3021 RMK A01 T00831020  RH  048%=      5-min Rain = 0
KTH1 250415Z 03008KT 08/M02 A3021 RMK A01 T00841020  RH  048%=      5-min Rain = 0
KTH1 250416Z 03005KT 08/M02 A3021 RMK A01 T00841020  RH  048%=      5-min Rain = 0
KTH1 250417Z 03007KT 08/M02 A3021 RMK A01 T00841020  RH  048%=      5-min Rain = 0
KTH1 250418Z 03007KT 08/M02 A3021 RMK A01 T00831020  RH  048%=      5-min Rain = 0
KTH1 250419Z 03007KT 08/M02 A3021 RMK A01 T00831020  RH  048%=      5-min Rain = 0
KTH1 250420Z 03006KT 08/M02 A3021 RMK A01 T00821020  RH  048%=      5-min Rain = 0
KTH1 250421Z 03007KT 08/M02 A3021 RMK A01 T00821021  RH  048%=      5-min Rain = 0
KTH1 250422Z 03007KT 08/M02 A3021 RMK A01 T00821020  RH  049%=      5-min Rain = 0
KTH1 250423Z 04006KT 08/M02 A3021 RMK A01 T00811021  RH  048%=      5-min Rain = 0
KTH1 250424Z 03007KT 08/M02 A3021 RMK A01 T00811021  RH  048%=      5-min Rain = 0
KTH1 250425Z 03006KT 08/M02 A3021 RMK A01 T00811021  RH  048%=      5-min Rain = 0
KTH1 250426Z 04008KT 08/M02 A3021 RMK A01 T00821021  RH  048%=      5-min Rain = 0
KTH1 250427Z 03007KT 08/M02 A3021 RMK A01 T00821021  RH  048%=      5-min Rain = 0
KTH1 250428Z 03006KT 08/M02 A3021 RMK A01 T00821022  RH  048%=      5-min Rain = 0
KTH1 250429Z 03007KT 08/M02 A3021 RMK A01 T00821021  RH  048%=      5-min Rain = 0
KTH1 250430Z 04007KT 08/M02 A3021 RMK A01 T00811022  RH  048%=      5-min Rain = 0
KTH1 250431Z 03007KT 08/M02 A3021 RMK A01 T00811022  RH  048%=      5-min Rain = 0
KTH1 250432Z 03009KT 08/M02 A3021 RMK A01 T00811022  RH  048%=      5-min Rain = 0
KTH1 250433Z 03008KT 08/M02 A3021 RMK A01 T00821022  RH  048%=      5-min Rain = 0
KTH1 250434Z 03006KT 08/M02 A3021 RMK A01 T00821022  RH  048%=      5-min Rain = 0
KTH1 250435Z 03008KT 08/M02 A3021 RMK A01 T00821022  RH  048%=      5-min Rain = 0
KTH1 250436Z 03006KT 08/M02 A3021 RMK A01 T00821022  RH  048%=      5-min Rain = 0
KTH1 250437Z 03007KT 08/M02 A3021 RMK A01 T00821022  RH  048%=      5-min Rain = 0
KTH1 250438Z 03007KT 08/M02 A3021 RMK A01 T00811022  RH  048%=      5-min Rain = 0
KTH1 250439Z 03008KT 08/M02 A3021 RMK A01 T00811022  RH  048%=      5-min Rain = 0
KTH1 250440Z 03008KT 08/M02 A3021 RMK A01 T00811022  RH  048%=      5-min Rain = 0
KTH1 250441Z 03008KT 08/M02 A3021 RMK A01 T00811022  RH  048%=      5-min Rain = 0
KTH1 250442Z 03006KT 08/M02 A3021 RMK A01 T00801022  RH  048%=      5-min Rain = 0
KTH1 250443Z 03006KT 08/M02 A3021 RMK A01 T00801022  RH  048%=      5-min Rain = 0
KTH1 250444Z 02006KT 08/M02 A3021 RMK A01 T00801022  RH  049%=      5-min Rain = 0
KTH1 250445Z 03007KT 08/M02 A3022 RMK A01 T00791022  RH  049%=      5-min Rain = 0
KTH1 250446Z 03006KT 08/M02 A3022 RMK A01 T00791022  RH  049%=      5-min Rain = 0
KTH1 250447Z 04005KT 08/M02 A3022 RMK A01 T00791021  RH  049%=      5-min Rain = 0
KTH1 250448Z 03006KT 08/M02 A3022 RMK A01 T00781021  RH  050%=      5-min Rain = 0
KTH1 250449Z 03006KT 08/M02 A3022 RMK A01 T00771022  RH  049%=      5-min Rain = 0
KTH1 250450Z 03007KT 08/M02 A3022 RMK A01 T00771022  RH  049%=      5-min Rain = 0
KTH1 250451Z 03006KT 08/M02 A3022 RMK A01 T00771022  RH  049%=      5-min Rain = 0
KTH1 250452Z 03005KT 08/M02 A3022 RMK A01 T00771022  RH  049%=      5-min Rain = 0
KTH1 250453Z 03006KT 08/M02 A3021 RMK A01 T00761022  RH  050%=      5-min Rain = 0
KTH1 250454Z 04005KT 08/M02 A3022 RMK A01 T00761022  RH  050%=      5-min Rain = 0
KTH1 250455Z 03008G13KT 08/M02 A3022 RMK A01 T00761022  RH  050%=      5-min Rain = 0
KTH1 250456Z 02006KT 08/M02 A3022 RMK A01 T00761023  RH  050%=      5-min Rain = 0
KTH1 250457Z 03005KT 08/M02 A3022 RMK A01 T00761022  RH  050%=      5-min Rain = 0
KTH1 250458Z 03005KT 08/M02 A3022 RMK A01 T00761023  RH  049%=      5-min Rain = 0
KTH1 250459Z 03008KT 08/M02 A3022 RMK A01 T00761022  RH  050%=      5-min Rain = 0
KTH1 250500Z 03006KT 08/M02 A3022 RMK A01 T00761023  RH  050%=      5-min Rain = 0
KTH1 250501Z 03005KT 08/M02 A3022 RMK A01 T00761022  RH  050%=      5-min Rain = 0
KTH1 250502Z 03007KT 08/M02 A3022 RMK A01 T00761022  RH  050%=      5-min Rain = 0
KTH1 250503Z 02006KT 08/M02 A3022 RMK A01 T00761022  RH  050%=      5-min Rain = 0
KTH1 250504Z 02007KT 08/M02 A3022 RMK A01 T00761022  RH  050%=      5-min Rain = 0
KTH1 250505Z 03006KT 08/M02 A3022 RMK A01 T00761022  RH  050%=      5-min Rain = 0
KTH1 250506Z 03006KT 08/M02 A3022 RMK A01 T00761022  RH  050%=      5-min Rain = 0
KTH1 250507Z 02006KT 08/M02 A3022 RMK A01 T00751022  RH  050%=      5-min Rain = 0
KTH1 250508Z 02006G11KT 07/M02 A3022 RMK A01 T00741022  RH  051%=      5-min Rain = 0
KTH1 250509Z 02009KT 07/M02 A3022 RMK A01 T00731022  RH  051%=      5-min Rain = 0
KTH1 250510Z 02005KT 07/M02 A3022 RMK A01 T00741022  RH  051%=      5-min Rain = 0
KTH1 250511Z 01007KT 07/M02 A3022 RMK A01 T00741022  RH  051%=      5-min Rain = 0
KTH1 250512Z 03006KT 07/M02 A3022 RMK A01 T00731022  RH  051%=      5-min Rain = 0
KTH1 250513Z 02005KT 07/M02 A3022 RMK A01 T00721022  RH  051%=      5-min Rain = 0
KTH1 250514Z 03006KT 07/M02 A3022 RMK A01 T00721021  RH  051%=      5-min Rain = 0
KTH1 250515Z 03007KT 07/M02 A3022 RMK A01 T00721022  RH  051%=      5-min Rain = 0
KTH1 250516Z 03007KT 07/M02 A3022 RMK A01 T00721021  RH  052%=      5-min Rain = 0
KTH1 250517Z 02005KT 07/M02 A3022 RMK A01 T00721021  RH  052%=      5-min Rain = 0
KTH1 250518Z 02006KT 07/M02 A3022 RMK A01 T00721021  RH  052%=      5-min Rain = 0
KTH1 250519Z 02008KT 07/M02 A3022 RMK A01 T00721021  RH  052%=      5-min Rain = 0
KTH1 250520Z 02008KT 07/M02 A3022 RMK A01 T00711021  RH  052%=      5-min Rain = 0
KTH1 250521Z 02006KT 07/M02 A3022 RMK A01 T00711021  RH  052%=      5-min Rain = 0
KTH1 250522Z 02007KT 07/M02 A3022 RMK A01 T00711021  RH  052%=      5-min Rain = 0
KTH1 250523Z 02006KT 07/M02 A3022 RMK A01 T00711021  RH  052%=      5-min Rain = 0
KTH1 250524Z 03006KT 07/M02 A3022 RMK A01 T00701021  RH  052%=      5-min Rain = 0
KTH1 250525Z 03007KT 07/M02 A3022 RMK A01 T00701021  RH  052%=      5-min Rain = 0
KTH1 250526Z 04006KT 07/M02 A3022 RMK A01 T00701021  RH  052%=      5-min Rain = 0
KTH1 250527Z 03006KT 07/M02 A3022 RMK A01 T00701021  RH  052%=      5-min Rain = 0
KTH1 250528Z 04006KT 07/M02 A3022 RMK A01 T00701021  RH  052%=      5-min Rain = 0
KTH1 250529Z 03007KT 07/M02 A3022 RMK A01 T00701022  RH  052%=      5-min Rain = 0
KTH1 250530Z 03008KT 07/M02 A3022 RMK A01 T00701022  RH  052%=      5-min Rain = 0
KTH1 250531Z 04008KT 07/M02 A3022 RMK A01 T00701022  RH  052%=      5-min Rain = 0
KTH1 250532Z 03007KT 07/M02 A3021 RMK A01 T00701022  RH  052%=      5-min Rain = 0
KTH1 250533Z 02007KT 07/M02 A3021 RMK A01 T00701021  RH  052%=      5-min Rain = 0
KTH1 250534Z 02008KT 07/M02 A3021 RMK A01 T00701022  RH  052%=      5-min Rain = 0
KTH1 250535Z 02007KT 07/M02 A3021 RMK A01 T00691022  RH  052%=      5-min Rain = 0
KTH1 250536Z 03008KT 07/M02 A3021 RMK A01 T00701021  RH  052%=      5-min Rain = 0
KTH1 250537Z 03007KT 07/M02 A3021 RMK A01 T00691022  RH  052%=      5-min Rain = 0
KTH1 250538Z 03008KT 07/M02 A3021 RMK A01 T00691022  RH  052%=      5-min Rain = 0
KTH1 250539Z 03008KT 07/M02 A3021 RMK A01 T00691022  RH  052%=      5-min Rain = 0
KTH1 250540Z 04006KT 07/M02 A3021 RMK A01 T00691022  RH  052%=      5-min Rain = 0
KTH1 250541Z 04007KT 07/M02 A3021 RMK A01 T00691022  RH  052%=      5-min Rain = 0
KTH1 250542Z 04006KT 07/M02 A3021 RMK A01 T00691022  RH  052%=      5-min Rain = 0
KTH1 250543Z 04006KT 07/M02 A3021 RMK A01 T00691022  RH  052%=      5-min Rain = 0
KTH1 250544Z 04007KT 07/M02 A3021 RMK A01 T00691022  RH  053%=      5-min Rain = 0
KTH1 250545Z 03008KT 07/M02 A3021 RMK A01 T00691022  RH  052%=      5-min Rain = 0
KTH1 250546Z 03007KT 07/M02 A302 RMK A01 T00691022  RH  052%=      5-min Rain = 0
KTH1 250547Z 03008KT 07/M02 A302 RMK A01 T00691023  RH  052%=      5-min Rain = 0
KTH1 250548Z 04006KT 07/M02 A3021 RMK A01 T00691023  RH  052%=      5-min Rain = 0
KTH1 250549Z 04007KT 07/M02 A3021 RMK A01 T00691023  RH  052%=      5-min Rain = 0
KTH1 250550Z 04006KT 07/M02 A3021 RMK A01 T00691022  RH  052%=      5-min Rain = 0
KTH1 250551Z 03006KT 07/M02 A3021 RMK A01 T00691022  RH  052%=      5-min Rain = 0
KTH1 250552Z 05006KT 07/M02 A3021 RMK A01 T00681022  RH  052%=      5-min Rain = 0
KTH1 250553Z 04006KT 07/M02 A3021 RMK A01 T00671022  RH  053%=      5-min Rain = 0
KTH1 250554Z 05005KT 07/M02 A3021 RMK A01 T00671022  RH  053%=      5-min Rain = 0
KTH1 250555Z 05006KT 07/M02 A3021 RMK A01 T00661022  RH  053%=      5-min Rain = 0
KTH1 250556Z 05006KT 07/M02 A3021 RMK A01 T00651022  RH  054%=      5-min Rain = 0
KTH1 250557Z 05006KT 07/M02 A3021 RMK A01 T00651021  RH  054%=      5-min Rain = 0
KTH1 250558Z 04006KT 07/M02 A3021 RMK A01 T00651022  RH  054%=      5-min Rain = 0
KTH1 250559Z 05005KT 07/M02 A3021 RMK A01 T00651022  RH  054%=      5-min Rain = 0

Page generated in 0.1375 seconds.